<?xml version="1.0" encoding="UTF-8" standalone="no" ?>
<gpx xmlns="http://www.topografix.com/GPX/1/1" xmlns:xsi="http://www.w3.org/2001/XMLSchema-instance" xsi:schemaLocation="http://www.topografix.com/GPX/1/1 http://www.topografix.com/GPX/1/1/gpx.xsd" version="1.1" creator="VisuGPX - https://www.visugpx.com">
  <metadata>
    <name>parcours VTT 5 mai 2019</name>
    <desc><![CDATA[parcours VTT 5 mai 2019  saint maximin]]></desc>
  </metadata>
  <trk>
    <name><![CDATA[2019-05-05 10:52:16]]></name>
    <trkseg>
      <trkpt lat="43.43954" lon="5.86022">
        <ele>336.6</ele>
        <time>2019-05-01T14:22:26Z</time>
      </trkpt>
      <trkpt lat="43.43954" lon="5.86022">
        <ele>336.6</ele>
        <time>2019-05-01T14:22:27Z</time>
      </trkpt>
      <trkpt lat="43.43954" lon="5.86022">
        <ele>336.6</ele>
        <time>2019-05-01T14:22:29Z</time>
      </trkpt>
      <trkpt lat="43.43973" lon="5.86034">
        <ele>424.56</ele>
        <time>2019-05-05T07:23:33Z</time>
      </trkpt>
      <trkpt lat="43.43968" lon="5.8603">
        <ele>421.19</ele>
        <time>2019-05-05T07:23:53Z</time>
      </trkpt>
      <trkpt lat="43.43968" lon="5.8603">
        <ele>416.87</ele>
        <time>2019-05-05T07:23:55Z</time>
      </trkpt>
      <trkpt lat="43.43969" lon="5.86029">
        <ele>413.02</ele>
        <time>2019-05-05T07:23:57Z</time>
      </trkpt>
      <trkpt lat="43.43969" lon="5.86029">
        <ele>409.18</ele>
        <time>2019-05-05T07:23:59Z</time>
      </trkpt>
      <trkpt lat="43.43969" lon="5.86029">
        <ele>405.81</ele>
        <time>2019-05-05T07:24:01Z</time>
      </trkpt>
      <trkpt lat="43.4397" lon="5.8603">
        <ele>402.93</ele>
        <time>2019-05-05T07:24:03Z</time>
      </trkpt>
      <trkpt lat="43.4397" lon="5.86029">
        <ele>398.12</ele>
        <time>2019-05-05T07:24:06Z</time>
      </trkpt>
      <trkpt lat="43.4397" lon="5.86029">
        <ele>394.28</ele>
        <time>2019-05-05T07:24:09Z</time>
      </trkpt>
      <trkpt lat="43.43971" lon="5.86029">
        <ele>390.91</ele>
        <time>2019-05-05T07:24:11Z</time>
      </trkpt>
      <trkpt lat="43.43971" lon="5.86029">
        <ele>386.11</ele>
        <time>2019-05-05T07:24:14Z</time>
      </trkpt>
      <trkpt lat="43.43971" lon="5.86029">
        <ele>386.11</ele>
        <time>2019-05-05T07:24:15Z</time>
      </trkpt>
      <trkpt lat="43.43971" lon="5.86029">
        <ele>383.22</ele>
        <time>2019-05-05T07:24:18Z</time>
      </trkpt>
      <trkpt lat="43.43971" lon="5.86029">
        <ele>379.38</ele>
        <time>2019-05-05T07:24:22Z</time>
      </trkpt>
      <trkpt lat="43.43971" lon="5.86029">
        <ele>376.49</ele>
        <time>2019-05-05T07:24:26Z</time>
      </trkpt>
      <trkpt lat="43.43971" lon="5.86029">
        <ele>372.65</ele>
        <time>2019-05-05T07:24:31Z</time>
      </trkpt>
      <trkpt lat="43.43971" lon="5.86029">
        <ele>369.76</ele>
        <time>2019-05-05T07:24:36Z</time>
      </trkpt>
      <trkpt lat="43.43971" lon="5.86028">
        <ele>367.36</ele>
        <time>2019-05-05T07:24:40Z</time>
      </trkpt>
      <trkpt lat="43.43971" lon="5.86028">
        <ele>364</ele>
        <time>2019-05-05T07:24:50Z</time>
      </trkpt>
      <trkpt lat="43.43971" lon="5.86028">
        <ele>361.11</ele>
        <time>2019-05-05T07:24:59Z</time>
      </trkpt>
      <trkpt lat="43.43971" lon="5.86027">
        <ele>358.23</ele>
        <time>2019-05-05T07:25:04Z</time>
      </trkpt>
      <trkpt lat="43.4397" lon="5.86027">
        <ele>355.34</ele>
        <time>2019-05-05T07:25:09Z</time>
      </trkpt>
      <trkpt lat="43.43969" lon="5.86028">
        <ele>351.98</ele>
        <time>2019-05-05T07:25:29Z</time>
      </trkpt>
      <trkpt lat="43.43968" lon="5.86028">
        <ele>350.54</ele>
        <time>2019-05-05T07:25:41Z</time>
      </trkpt>
      <trkpt lat="43.43967" lon="5.86029">
        <ele>348.13</ele>
        <time>2019-05-05T07:25:58Z</time>
      </trkpt>
      <trkpt lat="43.43967" lon="5.86029">
        <ele>350.54</ele>
        <time>2019-05-05T07:26:00Z</time>
      </trkpt>
      <trkpt lat="43.43969" lon="5.86028">
        <ele>350.06</ele>
        <time>2019-05-05T07:26:30Z</time>
      </trkpt>
      <trkpt lat="43.43969" lon="5.86027">
        <ele>348.62</ele>
        <time>2019-05-05T07:26:36Z</time>
      </trkpt>
      <trkpt lat="43.4397" lon="5.86027">
        <ele>349.58</ele>
        <time>2019-05-05T07:26:42Z</time>
      </trkpt>
      <trkpt lat="43.4397" lon="5.86027">
        <ele>349.58</ele>
        <time>2019-05-05T07:26:53Z</time>
      </trkpt>
      <trkpt lat="43.43974" lon="5.86024">
        <ele>349.58</ele>
        <time>2019-05-05T07:26:56Z</time>
      </trkpt>
      <trkpt lat="43.43975" lon="5.86022">
        <ele>350.06</ele>
        <time>2019-05-05T07:26:57Z</time>
      </trkpt>
      <trkpt lat="43.43977" lon="5.86021">
        <ele>350.06</ele>
        <time>2019-05-05T07:26:58Z</time>
      </trkpt>
      <trkpt lat="43.4398" lon="5.86023">
        <ele>350.06</ele>
        <time>2019-05-05T07:26:59Z</time>
      </trkpt>
      <trkpt lat="43.43983" lon="5.86026">
        <ele>350.06</ele>
        <time>2019-05-05T07:27:00Z</time>
      </trkpt>
      <trkpt lat="43.43986" lon="5.86029">
        <ele>350.06</ele>
        <time>2019-05-05T07:27:01Z</time>
      </trkpt>
      <trkpt lat="43.43993" lon="5.86038">
        <ele>347.65</ele>
        <time>2019-05-05T07:27:03Z</time>
      </trkpt>
      <trkpt lat="43.44018" lon="5.86071">
        <ele>345.25</ele>
        <time>2019-05-05T07:27:10Z</time>
      </trkpt>
      <trkpt lat="43.44021" lon="5.86076">
        <ele>344.29</ele>
        <time>2019-05-05T07:27:11Z</time>
      </trkpt>
      <trkpt lat="43.44023" lon="5.86082">
        <ele>344.29</ele>
        <time>2019-05-05T07:27:12Z</time>
      </trkpt>
      <trkpt lat="43.44024" lon="5.86088">
        <ele>344.29</ele>
        <time>2019-05-05T07:27:13Z</time>
      </trkpt>
      <trkpt lat="43.44025" lon="5.86095">
        <ele>344.29</ele>
        <time>2019-05-05T07:27:14Z</time>
      </trkpt>
      <trkpt lat="43.44025" lon="5.86102">
        <ele>344.29</ele>
        <time>2019-05-05T07:27:15Z</time>
      </trkpt>
      <trkpt lat="43.44025" lon="5.86109">
        <ele>344.29</ele>
        <time>2019-05-05T07:27:16Z</time>
      </trkpt>
      <trkpt lat="43.44027" lon="5.86178">
        <ele>343.33</ele>
        <time>2019-05-05T07:27:26Z</time>
      </trkpt>
      <trkpt lat="43.44028" lon="5.86184">
        <ele>342.85</ele>
        <time>2019-05-05T07:27:27Z</time>
      </trkpt>
      <trkpt lat="43.44038" lon="5.86248">
        <ele>340.44</ele>
        <time>2019-05-05T07:27:34Z</time>
      </trkpt>
      <trkpt lat="43.44043" lon="5.86276">
        <ele>337.56</ele>
        <time>2019-05-05T07:27:38Z</time>
      </trkpt>
      <trkpt lat="43.44046" lon="5.8629">
        <ele>336.6</ele>
        <time>2019-05-05T07:27:42Z</time>
      </trkpt>
      <trkpt lat="43.4405" lon="5.86293">
        <ele>336.12</ele>
        <time>2019-05-05T07:27:43Z</time>
      </trkpt>
      <trkpt lat="43.44054" lon="5.86292">
        <ele>336.12</ele>
        <time>2019-05-05T07:27:44Z</time>
      </trkpt>
      <trkpt lat="43.44056" lon="5.86293">
        <ele>337.56</ele>
        <time>2019-05-05T07:27:45Z</time>
      </trkpt>
      <trkpt lat="43.4406" lon="5.86291">
        <ele>337.56</ele>
        <time>2019-05-05T07:27:46Z</time>
      </trkpt>
      <trkpt lat="43.44063" lon="5.8629">
        <ele>337.56</ele>
        <time>2019-05-05T07:27:47Z</time>
      </trkpt>
      <trkpt lat="43.44067" lon="5.86288">
        <ele>337.56</ele>
        <time>2019-05-05T07:27:48Z</time>
      </trkpt>
      <trkpt lat="43.44137" lon="5.86261">
        <ele>334.68</ele>
        <time>2019-05-05T07:28:02Z</time>
      </trkpt>
      <trkpt lat="43.44232" lon="5.86226">
        <ele>336.6</ele>
        <time>2019-05-05T07:28:18Z</time>
      </trkpt>
      <trkpt lat="43.44242" lon="5.86223">
        <ele>335.16</ele>
        <time>2019-05-05T07:28:20Z</time>
      </trkpt>
      <trkpt lat="43.44304" lon="5.86198">
        <ele>336.6</ele>
        <time>2019-05-05T07:28:32Z</time>
      </trkpt>
      <trkpt lat="43.44328" lon="5.86183">
        <ele>335.16</ele>
        <time>2019-05-05T07:28:37Z</time>
      </trkpt>
      <trkpt lat="43.44341" lon="5.8617">
        <ele>335.16</ele>
        <time>2019-05-05T07:28:40Z</time>
      </trkpt>
      <trkpt lat="43.44363" lon="5.86144">
        <ele>333.71</ele>
        <time>2019-05-05T07:28:45Z</time>
      </trkpt>
      <trkpt lat="43.44381" lon="5.86107">
        <ele>330.83</ele>
        <time>2019-05-05T07:28:51Z</time>
      </trkpt>
      <trkpt lat="43.44408" lon="5.86009">
        <ele>327.47</ele>
        <time>2019-05-05T07:29:03Z</time>
      </trkpt>
      <trkpt lat="43.4442" lon="5.85972">
        <ele>328.43</ele>
        <time>2019-05-05T07:29:08Z</time>
      </trkpt>
      <trkpt lat="43.44423" lon="5.85966">
        <ele>326.99</ele>
        <time>2019-05-05T07:29:09Z</time>
      </trkpt>
      <trkpt lat="43.44427" lon="5.8596">
        <ele>326.99</ele>
        <time>2019-05-05T07:29:10Z</time>
      </trkpt>
      <trkpt lat="43.44432" lon="5.85957">
        <ele>326.99</ele>
        <time>2019-05-05T07:29:11Z</time>
      </trkpt>
      <trkpt lat="43.44437" lon="5.85956">
        <ele>327.47</ele>
        <time>2019-05-05T07:29:12Z</time>
      </trkpt>
      <trkpt lat="43.44443" lon="5.85958">
        <ele>326.5</ele>
        <time>2019-05-05T07:29:13Z</time>
      </trkpt>
      <trkpt lat="43.44448" lon="5.8596">
        <ele>326.02</ele>
        <time>2019-05-05T07:29:14Z</time>
      </trkpt>
      <trkpt lat="43.44454" lon="5.85962">
        <ele>326.02</ele>
        <time>2019-05-05T07:29:15Z</time>
      </trkpt>
      <trkpt lat="43.44542" lon="5.85994">
        <ele>323.14</ele>
        <time>2019-05-05T07:29:29Z</time>
      </trkpt>
      <trkpt lat="43.44612" lon="5.86018">
        <ele>319.78</ele>
        <time>2019-05-05T07:29:40Z</time>
      </trkpt>
      <trkpt lat="43.44618" lon="5.8602">
        <ele>319.78</ele>
        <time>2019-05-05T07:29:41Z</time>
      </trkpt>
      <trkpt lat="43.44641" lon="5.86025">
        <ele>319.78</ele>
        <time>2019-05-05T07:29:45Z</time>
      </trkpt>
      <trkpt lat="43.44646" lon="5.86022">
        <ele>319.78</ele>
        <time>2019-05-05T07:29:46Z</time>
      </trkpt>
      <trkpt lat="43.44651" lon="5.86017">
        <ele>319.78</ele>
        <time>2019-05-05T07:29:47Z</time>
      </trkpt>
      <trkpt lat="43.44654" lon="5.86014">
        <ele>319.78</ele>
        <time>2019-05-05T07:29:48Z</time>
      </trkpt>
      <trkpt lat="43.44656" lon="5.86009">
        <ele>319.78</ele>
        <time>2019-05-05T07:29:49Z</time>
      </trkpt>
      <trkpt lat="43.44658" lon="5.86004">
        <ele>319.78</ele>
        <time>2019-05-05T07:29:50Z</time>
      </trkpt>
      <trkpt lat="43.4466" lon="5.86">
        <ele>319.78</ele>
        <time>2019-05-05T07:29:51Z</time>
      </trkpt>
      <trkpt lat="43.44667" lon="5.8597">
        <ele>319.78</ele>
        <time>2019-05-05T07:30:03Z</time>
      </trkpt>
      <trkpt lat="43.44664" lon="5.8597">
        <ele>320.74</ele>
        <time>2019-05-05T07:30:08Z</time>
      </trkpt>
      <trkpt lat="43.44663" lon="5.85972">
        <ele>320.74</ele>
        <time>2019-05-05T07:30:10Z</time>
      </trkpt>
      <trkpt lat="43.44661" lon="5.85976">
        <ele>319.78</ele>
        <time>2019-05-05T07:30:12Z</time>
      </trkpt>
      <trkpt lat="43.44659" lon="5.85982">
        <ele>319.78</ele>
        <time>2019-05-05T07:30:28Z</time>
      </trkpt>
      <trkpt lat="43.44656" lon="5.85979">
        <ele>319.78</ele>
        <time>2019-05-05T07:30:59Z</time>
      </trkpt>
      <trkpt lat="43.44657" lon="5.85984">
        <ele>318.81</ele>
        <time>2019-05-05T07:31:32Z</time>
      </trkpt>
      <trkpt lat="43.44653" lon="5.85991">
        <ele>318.33</ele>
        <time>2019-05-05T07:31:55Z</time>
      </trkpt>
      <trkpt lat="43.44653" lon="5.85996">
        <ele>319.3</ele>
        <time>2019-05-05T07:32:01Z</time>
      </trkpt>
      <trkpt lat="43.44653" lon="5.85995">
        <ele>319.3</ele>
        <time>2019-05-05T07:32:02Z</time>
      </trkpt>
      <trkpt lat="43.44658" lon="5.85983">
        <ele>319.3</ele>
        <time>2019-05-05T07:32:16Z</time>
      </trkpt>
      <trkpt lat="43.44658" lon="5.85982">
        <ele>319.3</ele>
        <time>2019-05-05T07:32:17Z</time>
      </trkpt>
      <trkpt lat="43.44657" lon="5.85979">
        <ele>319.3</ele>
        <time>2019-05-05T07:32:18Z</time>
      </trkpt>
      <trkpt lat="43.44644" lon="5.85957">
        <ele>319.3</ele>
        <time>2019-05-05T07:32:28Z</time>
      </trkpt>
      <trkpt lat="43.44632" lon="5.85941">
        <ele>319.3</ele>
        <time>2019-05-05T07:32:41Z</time>
      </trkpt>
      <trkpt lat="43.44626" lon="5.85935">
        <ele>318.81</ele>
        <time>2019-05-05T07:32:54Z</time>
      </trkpt>
      <trkpt lat="43.44626" lon="5.85938">
        <ele>319.78</ele>
        <time>2019-05-05T07:33:07Z</time>
      </trkpt>
      <trkpt lat="43.44626" lon="5.85939">
        <ele>319.78</ele>
        <time>2019-05-05T07:33:08Z</time>
      </trkpt>
      <trkpt lat="43.44627" lon="5.85941">
        <ele>318.81</ele>
        <time>2019-05-05T07:33:37Z</time>
      </trkpt>
      <trkpt lat="43.44627" lon="5.8594">
        <ele>320.26</ele>
        <time>2019-05-05T07:33:41Z</time>
      </trkpt>
      <trkpt lat="43.44628" lon="5.85939">
        <ele>317.85</ele>
        <time>2019-05-05T07:33:53Z</time>
      </trkpt>
      <trkpt lat="43.44628" lon="5.85939">
        <ele>321.22</ele>
        <time>2019-05-05T07:33:54Z</time>
      </trkpt>
      <trkpt lat="43.44628" lon="5.85938">
        <ele>320.74</ele>
        <time>2019-05-05T07:33:59Z</time>
      </trkpt>
      <trkpt lat="43.44629" lon="5.85939">
        <ele>319.3</ele>
        <time>2019-05-05T07:34:03Z</time>
      </trkpt>
      <trkpt lat="43.44628" lon="5.85938">
        <ele>318.81</ele>
        <time>2019-05-05T07:34:37Z</time>
      </trkpt>
      <trkpt lat="43.44627" lon="5.85937">
        <ele>316.89</ele>
        <time>2019-05-05T07:34:47Z</time>
      </trkpt>
      <trkpt lat="43.44627" lon="5.85937">
        <ele>321.22</ele>
        <time>2019-05-05T07:34:51Z</time>
      </trkpt>
      <trkpt lat="43.44629" lon="5.85941">
        <ele>318.33</ele>
        <time>2019-05-05T07:35:04Z</time>
      </trkpt>
      <trkpt lat="43.4463" lon="5.85943">
        <ele>320.74</ele>
        <time>2019-05-05T07:35:19Z</time>
      </trkpt>
      <trkpt lat="43.44631" lon="5.85945">
        <ele>319.3</ele>
        <time>2019-05-05T07:35:21Z</time>
      </trkpt>
      <trkpt lat="43.44633" lon="5.85946">
        <ele>319.3</ele>
        <time>2019-05-05T07:35:22Z</time>
      </trkpt>
      <trkpt lat="43.4465" lon="5.85966">
        <ele>319.78</ele>
        <time>2019-05-05T07:35:33Z</time>
      </trkpt>
      <trkpt lat="43.44666" lon="5.85972">
        <ele>321.22</ele>
        <time>2019-05-05T07:35:42Z</time>
      </trkpt>
      <trkpt lat="43.44668" lon="5.85969">
        <ele>322.18</ele>
        <time>2019-05-05T07:35:44Z</time>
      </trkpt>
      <trkpt lat="43.4467" lon="5.85967">
        <ele>322.18</ele>
        <time>2019-05-05T07:35:45Z</time>
      </trkpt>
      <trkpt lat="43.44672" lon="5.85965">
        <ele>320.74</ele>
        <time>2019-05-05T07:35:46Z</time>
      </trkpt>
      <trkpt lat="43.44674" lon="5.85962">
        <ele>320.74</ele>
        <time>2019-05-05T07:35:47Z</time>
      </trkpt>
      <trkpt lat="43.44697" lon="5.85921">
        <ele>323.14</ele>
        <time>2019-05-05T07:36:01Z</time>
      </trkpt>
      <trkpt lat="43.44708" lon="5.85902">
        <ele>325.54</ele>
        <time>2019-05-05T07:36:07Z</time>
      </trkpt>
      <trkpt lat="43.44735" lon="5.8585">
        <ele>326.99</ele>
        <time>2019-05-05T07:36:22Z</time>
      </trkpt>
      <trkpt lat="43.44767" lon="5.85782">
        <ele>327.95</ele>
        <time>2019-05-05T07:36:40Z</time>
      </trkpt>
      <trkpt lat="43.44803" lon="5.85707">
        <ele>329.39</ele>
        <time>2019-05-05T07:37:00Z</time>
      </trkpt>
      <trkpt lat="43.44812" lon="5.8569">
        <ele>330.83</ele>
        <time>2019-05-05T07:37:05Z</time>
      </trkpt>
      <trkpt lat="43.44845" lon="5.85626">
        <ele>330.83</ele>
        <time>2019-05-05T07:37:23Z</time>
      </trkpt>
      <trkpt lat="43.44866" lon="5.85577">
        <ele>331.31</ele>
        <time>2019-05-05T07:37:36Z</time>
      </trkpt>
      <trkpt lat="43.44879" lon="5.85549">
        <ele>334.2</ele>
        <time>2019-05-05T07:37:44Z</time>
      </trkpt>
      <trkpt lat="43.449" lon="5.85507">
        <ele>333.23</ele>
        <time>2019-05-05T07:37:56Z</time>
      </trkpt>
      <trkpt lat="43.44927" lon="5.85455">
        <ele>333.23</ele>
        <time>2019-05-05T07:38:10Z</time>
      </trkpt>
      <trkpt lat="43.44959" lon="5.8539">
        <ele>332.75</ele>
        <time>2019-05-05T07:38:27Z</time>
      </trkpt>
      <trkpt lat="43.44976" lon="5.85341">
        <ele>331.79</ele>
        <time>2019-05-05T07:38:39Z</time>
      </trkpt>
      <trkpt lat="43.4498" lon="5.85325">
        <ele>333.23</ele>
        <time>2019-05-05T07:38:42Z</time>
      </trkpt>
      <trkpt lat="43.44985" lon="5.85313">
        <ele>329.87</ele>
        <time>2019-05-05T07:38:44Z</time>
      </trkpt>
      <trkpt lat="43.44989" lon="5.85295">
        <ele>331.79</ele>
        <time>2019-05-05T07:38:47Z</time>
      </trkpt>
      <trkpt lat="43.44991" lon="5.85289">
        <ele>331.79</ele>
        <time>2019-05-05T07:38:48Z</time>
      </trkpt>
      <trkpt lat="43.45004" lon="5.8525">
        <ele>331.79</ele>
        <time>2019-05-05T07:38:59Z</time>
      </trkpt>
      <trkpt lat="43.45006" lon="5.85249">
        <ele>333.23</ele>
        <time>2019-05-05T07:39:14Z</time>
      </trkpt>
      <trkpt lat="43.45005" lon="5.8525">
        <ele>331.79</ele>
        <time>2019-05-05T07:39:18Z</time>
      </trkpt>
      <trkpt lat="43.45006" lon="5.85249">
        <ele>333.23</ele>
        <time>2019-05-05T07:39:27Z</time>
      </trkpt>
      <trkpt lat="43.45007" lon="5.85248">
        <ele>333.23</ele>
        <time>2019-05-05T07:39:28Z</time>
      </trkpt>
      <trkpt lat="43.45007" lon="5.85246">
        <ele>333.23</ele>
        <time>2019-05-05T07:39:29Z</time>
      </trkpt>
      <trkpt lat="43.45022" lon="5.85195">
        <ele>335.64</ele>
        <time>2019-05-05T07:39:44Z</time>
      </trkpt>
      <trkpt lat="43.45029" lon="5.85156">
        <ele>338.04</ele>
        <time>2019-05-05T07:39:54Z</time>
      </trkpt>
      <trkpt lat="43.45029" lon="5.85138">
        <ele>338.04</ele>
        <time>2019-05-05T07:39:59Z</time>
      </trkpt>
      <trkpt lat="43.45023" lon="5.85085">
        <ele>341.41</ele>
        <time>2019-05-05T07:40:18Z</time>
      </trkpt>
      <trkpt lat="43.45022" lon="5.8508">
        <ele>342.37</ele>
        <time>2019-05-05T07:40:20Z</time>
      </trkpt>
      <trkpt lat="43.45022" lon="5.85063">
        <ele>344.29</ele>
        <time>2019-05-05T07:40:27Z</time>
      </trkpt>
      <trkpt lat="43.45022" lon="5.85051">
        <ele>345.73</ele>
        <time>2019-05-05T07:40:32Z</time>
      </trkpt>
      <trkpt lat="43.45021" lon="5.85018">
        <ele>349.1</ele>
        <time>2019-05-05T07:40:46Z</time>
      </trkpt>
      <trkpt lat="43.45021" lon="5.84983">
        <ele>351.98</ele>
        <time>2019-05-05T07:41:02Z</time>
      </trkpt>
      <trkpt lat="43.45022" lon="5.84972">
        <ele>352.94</ele>
        <time>2019-05-05T07:41:21Z</time>
      </trkpt>
      <trkpt lat="43.45024" lon="5.84957">
        <ele>355.83</ele>
        <time>2019-05-05T07:41:31Z</time>
      </trkpt>
      <trkpt lat="43.45027" lon="5.84947">
        <ele>356.79</ele>
        <time>2019-05-05T07:41:39Z</time>
      </trkpt>
      <trkpt lat="43.45028" lon="5.84941">
        <ele>358.23</ele>
        <time>2019-05-05T07:41:44Z</time>
      </trkpt>
      <trkpt lat="43.45031" lon="5.84926">
        <ele>360.15</ele>
        <time>2019-05-05T07:41:56Z</time>
      </trkpt>
      <trkpt lat="43.45034" lon="5.84901">
        <ele>362.07</ele>
        <time>2019-05-05T07:42:15Z</time>
      </trkpt>
      <trkpt lat="43.45037" lon="5.84889">
        <ele>363.52</ele>
        <time>2019-05-05T07:42:31Z</time>
      </trkpt>
      <trkpt lat="43.4504" lon="5.84863">
        <ele>366.88</ele>
        <time>2019-05-05T07:42:50Z</time>
      </trkpt>
      <trkpt lat="43.45041" lon="5.84837">
        <ele>368.8</ele>
        <time>2019-05-05T07:43:10Z</time>
      </trkpt>
      <trkpt lat="43.4504" lon="5.84814">
        <ele>371.21</ele>
        <time>2019-05-05T07:43:28Z</time>
      </trkpt>
      <trkpt lat="43.4504" lon="5.84792">
        <ele>374.57</ele>
        <time>2019-05-05T07:43:46Z</time>
      </trkpt>
      <trkpt lat="43.4504" lon="5.84788">
        <ele>376.01</ele>
        <time>2019-05-05T07:43:49Z</time>
      </trkpt>
      <trkpt lat="43.45041" lon="5.84781">
        <ele>377.45</ele>
        <time>2019-05-05T07:43:55Z</time>
      </trkpt>
      <trkpt lat="43.45042" lon="5.84771">
        <ele>377.94</ele>
        <time>2019-05-05T07:44:03Z</time>
      </trkpt>
      <trkpt lat="43.45045" lon="5.84754">
        <ele>378.9</ele>
        <time>2019-05-05T07:44:19Z</time>
      </trkpt>
      <trkpt lat="43.45048" lon="5.84731">
        <ele>379.86</ele>
        <time>2019-05-05T07:44:33Z</time>
      </trkpt>
      <trkpt lat="43.45049" lon="5.84699">
        <ele>384.66</ele>
        <time>2019-05-05T07:44:47Z</time>
      </trkpt>
      <trkpt lat="43.45049" lon="5.8466">
        <ele>384.66</ele>
        <time>2019-05-05T07:45:05Z</time>
      </trkpt>
      <trkpt lat="43.45048" lon="5.84618">
        <ele>387.55</ele>
        <time>2019-05-05T07:45:23Z</time>
      </trkpt>
      <trkpt lat="43.45049" lon="5.846">
        <ele>388.51</ele>
        <time>2019-05-05T07:45:36Z</time>
      </trkpt>
      <trkpt lat="43.45049" lon="5.84594">
        <ele>389.47</ele>
        <time>2019-05-05T07:45:51Z</time>
      </trkpt>
      <trkpt lat="43.45048" lon="5.84595">
        <ele>389.47</ele>
        <time>2019-05-05T07:46:10Z</time>
      </trkpt>
      <trkpt lat="43.45047" lon="5.84592">
        <ele>387.07</ele>
        <time>2019-05-05T07:46:25Z</time>
      </trkpt>
      <trkpt lat="43.45048" lon="5.84592">
        <ele>388.03</ele>
        <time>2019-05-05T07:46:39Z</time>
      </trkpt>
      <trkpt lat="43.45047" lon="5.8459">
        <ele>388.03</ele>
        <time>2019-05-05T07:46:47Z</time>
      </trkpt>
      <trkpt lat="43.45047" lon="5.84589">
        <ele>388.51</ele>
        <time>2019-05-05T07:46:48Z</time>
      </trkpt>
      <trkpt lat="43.45047" lon="5.84588">
        <ele>388.51</ele>
        <time>2019-05-05T07:46:49Z</time>
      </trkpt>
      <trkpt lat="43.45048" lon="5.84586">
        <ele>388.51</ele>
        <time>2019-05-05T07:46:50Z</time>
      </trkpt>
      <trkpt lat="43.45047" lon="5.84585">
        <ele>388.51</ele>
        <time>2019-05-05T07:46:51Z</time>
      </trkpt>
      <trkpt lat="43.45046" lon="5.84554">
        <ele>391.39</ele>
        <time>2019-05-05T07:47:05Z</time>
      </trkpt>
      <trkpt lat="43.45044" lon="5.84514">
        <ele>394.28</ele>
        <time>2019-05-05T07:47:22Z</time>
      </trkpt>
      <trkpt lat="43.45048" lon="5.84492">
        <ele>398.12</ele>
        <time>2019-05-05T07:47:31Z</time>
      </trkpt>
      <trkpt lat="43.45051" lon="5.84484">
        <ele>401.49</ele>
        <time>2019-05-05T07:47:35Z</time>
      </trkpt>
      <trkpt lat="43.45064" lon="5.84439">
        <ele>401.97</ele>
        <time>2019-05-05T07:47:52Z</time>
      </trkpt>
      <trkpt lat="43.45073" lon="5.84408">
        <ele>403.41</ele>
        <time>2019-05-05T07:48:03Z</time>
      </trkpt>
      <trkpt lat="43.45077" lon="5.84396">
        <ele>401.49</ele>
        <time>2019-05-05T07:48:07Z</time>
      </trkpt>
      <trkpt lat="43.45097" lon="5.84334">
        <ele>402.45</ele>
        <time>2019-05-05T07:48:27Z</time>
      </trkpt>
      <trkpt lat="43.45096" lon="5.84284">
        <ele>403.89</ele>
        <time>2019-05-05T07:48:42Z</time>
      </trkpt>
      <trkpt lat="43.45093" lon="5.84258">
        <ele>402.45</ele>
        <time>2019-05-05T07:48:51Z</time>
      </trkpt>
      <trkpt lat="43.45086" lon="5.84205">
        <ele>400.53</ele>
        <time>2019-05-05T07:49:03Z</time>
      </trkpt>
      <trkpt lat="43.45089" lon="5.84172">
        <ele>400.05</ele>
        <time>2019-05-05T07:49:09Z</time>
      </trkpt>
      <trkpt lat="43.45098" lon="5.84131">
        <ele>400.05</ele>
        <time>2019-05-05T07:49:18Z</time>
      </trkpt>
      <trkpt lat="43.45109" lon="5.84093">
        <ele>396.68</ele>
        <time>2019-05-05T07:49:27Z</time>
      </trkpt>
      <trkpt lat="43.45113" lon="5.84076">
        <ele>395.72</ele>
        <time>2019-05-05T07:49:31Z</time>
      </trkpt>
      <trkpt lat="43.45112" lon="5.84072">
        <ele>395.72</ele>
        <time>2019-05-05T07:49:32Z</time>
      </trkpt>
      <trkpt lat="43.4511" lon="5.84068">
        <ele>395.72</ele>
        <time>2019-05-05T07:49:33Z</time>
      </trkpt>
      <trkpt lat="43.45109" lon="5.84065">
        <ele>396.2</ele>
        <time>2019-05-05T07:49:34Z</time>
      </trkpt>
      <trkpt lat="43.45108" lon="5.84061">
        <ele>396.2</ele>
        <time>2019-05-05T07:49:35Z</time>
      </trkpt>
      <trkpt lat="43.45108" lon="5.84057">
        <ele>395.72</ele>
        <time>2019-05-05T07:49:36Z</time>
      </trkpt>
      <trkpt lat="43.45109" lon="5.84054">
        <ele>395.72</ele>
        <time>2019-05-05T07:49:37Z</time>
      </trkpt>
      <trkpt lat="43.4511" lon="5.8405">
        <ele>397.64</ele>
        <time>2019-05-05T07:49:38Z</time>
      </trkpt>
      <trkpt lat="43.45111" lon="5.84047">
        <ele>397.64</ele>
        <time>2019-05-05T07:49:39Z</time>
      </trkpt>
      <trkpt lat="43.45122" lon="5.84003">
        <ele>399.57</ele>
        <time>2019-05-05T07:49:54Z</time>
      </trkpt>
      <trkpt lat="43.45128" lon="5.83983">
        <ele>400.05</ele>
        <time>2019-05-05T07:50:06Z</time>
      </trkpt>
      <trkpt lat="43.45135" lon="5.83966">
        <ele>398.6</ele>
        <time>2019-05-05T07:50:19Z</time>
      </trkpt>
      <trkpt lat="43.45138" lon="5.83962">
        <ele>399.57</ele>
        <time>2019-05-05T07:50:25Z</time>
      </trkpt>
      <trkpt lat="43.45138" lon="5.83955">
        <ele>400.05</ele>
        <time>2019-05-05T07:50:34Z</time>
      </trkpt>
      <trkpt lat="43.4514" lon="5.83951">
        <ele>399.08</ele>
        <time>2019-05-05T07:50:42Z</time>
      </trkpt>
      <trkpt lat="43.4514" lon="5.83949">
        <ele>400.05</ele>
        <time>2019-05-05T07:50:49Z</time>
      </trkpt>
      <trkpt lat="43.45139" lon="5.83949">
        <ele>400.53</ele>
        <time>2019-05-05T07:51:04Z</time>
      </trkpt>
      <trkpt lat="43.45134" lon="5.83958">
        <ele>400.53</ele>
        <time>2019-05-05T07:51:19Z</time>
      </trkpt>
      <trkpt lat="43.4513" lon="5.83962">
        <ele>400.53</ele>
        <time>2019-05-05T07:51:23Z</time>
      </trkpt>
      <trkpt lat="43.4512" lon="5.83986">
        <ele>399.57</ele>
        <time>2019-05-05T07:51:36Z</time>
      </trkpt>
      <trkpt lat="43.45112" lon="5.83997">
        <ele>400.05</ele>
        <time>2019-05-05T07:51:47Z</time>
      </trkpt>
      <trkpt lat="43.45108" lon="5.84001">
        <ele>400.05</ele>
        <time>2019-05-05T07:51:50Z</time>
      </trkpt>
      <trkpt lat="43.45105" lon="5.84002">
        <ele>398.6</ele>
        <time>2019-05-05T07:51:53Z</time>
      </trkpt>
      <trkpt lat="43.45103" lon="5.84001">
        <ele>398.6</ele>
        <time>2019-05-05T07:51:55Z</time>
      </trkpt>
      <trkpt lat="43.45099" lon="5.84">
        <ele>400.05</ele>
        <time>2019-05-05T07:51:58Z</time>
      </trkpt>
      <trkpt lat="43.45097" lon="5.84">
        <ele>401.49</ele>
        <time>2019-05-05T07:52:00Z</time>
      </trkpt>
      <trkpt lat="43.45093" lon="5.83997">
        <ele>402.93</ele>
        <time>2019-05-05T07:52:04Z</time>
      </trkpt>
      <trkpt lat="43.4509" lon="5.83991">
        <ele>403.89</ele>
        <time>2019-05-05T07:52:08Z</time>
      </trkpt>
      <trkpt lat="43.45088" lon="5.83979">
        <ele>402.45</ele>
        <time>2019-05-05T07:52:14Z</time>
      </trkpt>
      <trkpt lat="43.45087" lon="5.83964">
        <ele>406.29</ele>
        <time>2019-05-05T07:52:21Z</time>
      </trkpt>
      <trkpt lat="43.45088" lon="5.83946">
        <ele>404.37</ele>
        <time>2019-05-05T07:52:30Z</time>
      </trkpt>
      <trkpt lat="43.45088" lon="5.83936">
        <ele>407.26</ele>
        <time>2019-05-05T07:52:35Z</time>
      </trkpt>
      <trkpt lat="43.45087" lon="5.83934">
        <ele>405.33</ele>
        <time>2019-05-05T07:52:39Z</time>
      </trkpt>
      <trkpt lat="43.45087" lon="5.83934">
        <ele>408.7</ele>
        <time>2019-05-05T07:52:41Z</time>
      </trkpt>
      <trkpt lat="43.45087" lon="5.83933">
        <ele>408.7</ele>
        <time>2019-05-05T07:52:42Z</time>
      </trkpt>
      <trkpt lat="43.45087" lon="5.8393">
        <ele>408.7</ele>
        <time>2019-05-05T07:52:45Z</time>
      </trkpt>
      <trkpt lat="43.45088" lon="5.83916">
        <ele>409.18</ele>
        <time>2019-05-05T07:52:52Z</time>
      </trkpt>
      <trkpt lat="43.45088" lon="5.83872">
        <ele>410.62</ele>
        <time>2019-05-05T07:53:09Z</time>
      </trkpt>
      <trkpt lat="43.45086" lon="5.83847">
        <ele>410.62</ele>
        <time>2019-05-05T07:53:17Z</time>
      </trkpt>
      <trkpt lat="43.45084" lon="5.83841">
        <ele>409.66</ele>
        <time>2019-05-05T07:53:24Z</time>
      </trkpt>
      <trkpt lat="43.4508" lon="5.83829">
        <ele>411.1</ele>
        <time>2019-05-05T07:53:32Z</time>
      </trkpt>
      <trkpt lat="43.45076" lon="5.83816">
        <ele>413.02</ele>
        <time>2019-05-05T07:53:43Z</time>
      </trkpt>
      <trkpt lat="43.45073" lon="5.83817">
        <ele>410.14</ele>
        <time>2019-05-05T07:53:53Z</time>
      </trkpt>
      <trkpt lat="43.45072" lon="5.83817">
        <ele>411.58</ele>
        <time>2019-05-05T07:53:57Z</time>
      </trkpt>
      <trkpt lat="43.45075" lon="5.83814">
        <ele>412.06</ele>
        <time>2019-05-05T07:54:09Z</time>
      </trkpt>
      <trkpt lat="43.45082" lon="5.83821">
        <ele>409.18</ele>
        <time>2019-05-05T07:54:19Z</time>
      </trkpt>
      <trkpt lat="43.45084" lon="5.83824">
        <ele>409.18</ele>
        <time>2019-05-05T07:54:22Z</time>
      </trkpt>
      <trkpt lat="43.45087" lon="5.83831">
        <ele>409.18</ele>
        <time>2019-05-05T07:54:26Z</time>
      </trkpt>
      <trkpt lat="43.45084" lon="5.83875">
        <ele>410.62</ele>
        <time>2019-05-05T07:54:42Z</time>
      </trkpt>
      <trkpt lat="43.45084" lon="5.8388">
        <ele>410.62</ele>
        <time>2019-05-05T07:54:43Z</time>
      </trkpt>
      <trkpt lat="43.45083" lon="5.8389">
        <ele>409.66</ele>
        <time>2019-05-05T07:54:46Z</time>
      </trkpt>
      <trkpt lat="43.45081" lon="5.83897">
        <ele>409.66</ele>
        <time>2019-05-05T07:54:49Z</time>
      </trkpt>
      <trkpt lat="43.45069" lon="5.8391">
        <ele>409.18</ele>
        <time>2019-05-05T07:55:05Z</time>
      </trkpt>
      <trkpt lat="43.45063" lon="5.8391">
        <ele>409.18</ele>
        <time>2019-05-05T07:55:19Z</time>
      </trkpt>
      <trkpt lat="43.45057" lon="5.8391">
        <ele>412.54</ele>
        <time>2019-05-05T07:55:22Z</time>
      </trkpt>
      <trkpt lat="43.45047" lon="5.83911">
        <ele>409.66</ele>
        <time>2019-05-05T07:55:25Z</time>
      </trkpt>
      <trkpt lat="43.4504" lon="5.83911">
        <ele>408.7</ele>
        <time>2019-05-05T07:55:27Z</time>
      </trkpt>
      <trkpt lat="43.45" lon="5.83917">
        <ele>408.7</ele>
        <time>2019-05-05T07:55:43Z</time>
      </trkpt>
      <trkpt lat="43.44973" lon="5.83934">
        <ele>410.14</ele>
        <time>2019-05-05T07:55:55Z</time>
      </trkpt>
      <trkpt lat="43.44972" lon="5.83936">
        <ele>410.14</ele>
        <time>2019-05-05T07:55:56Z</time>
      </trkpt>
      <trkpt lat="43.44968" lon="5.83951">
        <ele>410.14</ele>
        <time>2019-05-05T07:56:01Z</time>
      </trkpt>
      <trkpt lat="43.44956" lon="5.83952">
        <ele>408.22</ele>
        <time>2019-05-05T07:56:06Z</time>
      </trkpt>
      <trkpt lat="43.44955" lon="5.83952">
        <ele>408.22</ele>
        <time>2019-05-05T07:56:07Z</time>
      </trkpt>
      <trkpt lat="43.44945" lon="5.83945">
        <ele>409.66</ele>
        <time>2019-05-05T07:56:19Z</time>
      </trkpt>
      <trkpt lat="43.44945" lon="5.83945">
        <ele>408.22</ele>
        <time>2019-05-05T07:56:25Z</time>
      </trkpt>
      <trkpt lat="43.44944" lon="5.83943">
        <ele>407.74</ele>
        <time>2019-05-05T07:56:27Z</time>
      </trkpt>
      <trkpt lat="43.44944" lon="5.83942">
        <ele>407.74</ele>
        <time>2019-05-05T07:56:28Z</time>
      </trkpt>
      <trkpt lat="43.44946" lon="5.83927">
        <ele>407.74</ele>
        <time>2019-05-05T07:56:41Z</time>
      </trkpt>
      <trkpt lat="43.44947" lon="5.83925">
        <ele>407.74</ele>
        <time>2019-05-05T07:56:42Z</time>
      </trkpt>
      <trkpt lat="43.44947" lon="5.83923">
        <ele>407.74</ele>
        <time>2019-05-05T07:56:43Z</time>
      </trkpt>
      <trkpt lat="43.44947" lon="5.83921">
        <ele>407.74</ele>
        <time>2019-05-05T07:56:44Z</time>
      </trkpt>
      <trkpt lat="43.44948" lon="5.83918">
        <ele>407.74</ele>
        <time>2019-05-05T07:56:45Z</time>
      </trkpt>
      <trkpt lat="43.44948" lon="5.8391">
        <ele>409.18</ele>
        <time>2019-05-05T07:56:48Z</time>
      </trkpt>
      <trkpt lat="43.4495" lon="5.83897">
        <ele>410.62</ele>
        <time>2019-05-05T07:56:53Z</time>
      </trkpt>
      <trkpt lat="43.44959" lon="5.83844">
        <ele>411.58</ele>
        <time>2019-05-05T07:57:10Z</time>
      </trkpt>
      <trkpt lat="43.44964" lon="5.83817">
        <ele>414.47</ele>
        <time>2019-05-05T07:57:19Z</time>
      </trkpt>
      <trkpt lat="43.44965" lon="5.83814">
        <ele>414.47</ele>
        <time>2019-05-05T07:57:20Z</time>
      </trkpt>
      <trkpt lat="43.44974" lon="5.83768">
        <ele>417.83</ele>
        <time>2019-05-05T07:57:36Z</time>
      </trkpt>
      <trkpt lat="43.44975" lon="5.83765">
        <ele>417.83</ele>
        <time>2019-05-05T07:57:37Z</time>
      </trkpt>
      <trkpt lat="43.44975" lon="5.83763">
        <ele>415.43</ele>
        <time>2019-05-05T07:57:38Z</time>
      </trkpt>
      <trkpt lat="43.44976" lon="5.83759">
        <ele>415.91</ele>
        <time>2019-05-05T07:57:39Z</time>
      </trkpt>
      <trkpt lat="43.44978" lon="5.8375">
        <ele>416.87</ele>
        <time>2019-05-05T07:57:42Z</time>
      </trkpt>
      <trkpt lat="43.44984" lon="5.83714">
        <ele>420.23</ele>
        <time>2019-05-05T07:57:54Z</time>
      </trkpt>
      <trkpt lat="43.44994" lon="5.83671">
        <ele>423.12</ele>
        <time>2019-05-05T07:58:10Z</time>
      </trkpt>
      <trkpt lat="43.44994" lon="5.83669">
        <ele>423.6</ele>
        <time>2019-05-05T07:58:11Z</time>
      </trkpt>
      <trkpt lat="43.44995" lon="5.83667">
        <ele>423.6</ele>
        <time>2019-05-05T07:58:12Z</time>
      </trkpt>
      <trkpt lat="43.44996" lon="5.83665">
        <ele>425.04</ele>
        <time>2019-05-05T07:58:13Z</time>
      </trkpt>
      <trkpt lat="43.44997" lon="5.83662">
        <ele>425.04</ele>
        <time>2019-05-05T07:58:14Z</time>
      </trkpt>
      <trkpt lat="43.44997" lon="5.8366">
        <ele>425.04</ele>
        <time>2019-05-05T07:58:15Z</time>
      </trkpt>
      <trkpt lat="43.44997" lon="5.83657">
        <ele>425.04</ele>
        <time>2019-05-05T07:58:16Z</time>
      </trkpt>
      <trkpt lat="43.44999" lon="5.83646">
        <ele>427.92</ele>
        <time>2019-05-05T07:58:27Z</time>
      </trkpt>
      <trkpt lat="43.44999" lon="5.83643">
        <ele>431.29</ele>
        <time>2019-05-05T07:58:29Z</time>
      </trkpt>
      <trkpt lat="43.44999" lon="5.83642">
        <ele>431.29</ele>
        <time>2019-05-05T07:58:30Z</time>
      </trkpt>
      <trkpt lat="43.44999" lon="5.8364">
        <ele>429.85</ele>
        <time>2019-05-05T07:58:32Z</time>
      </trkpt>
      <trkpt lat="43.45002" lon="5.83625">
        <ele>430.33</ele>
        <time>2019-05-05T07:58:45Z</time>
      </trkpt>
      <trkpt lat="43.45006" lon="5.83613">
        <ele>431.77</ele>
        <time>2019-05-05T07:58:56Z</time>
      </trkpt>
      <trkpt lat="43.45005" lon="5.83595">
        <ele>434.65</ele>
        <time>2019-05-05T07:59:13Z</time>
      </trkpt>
      <trkpt lat="43.45005" lon="5.83578">
        <ele>437.06</ele>
        <time>2019-05-05T07:59:29Z</time>
      </trkpt>
      <trkpt lat="43.45008" lon="5.83561">
        <ele>439.46</ele>
        <time>2019-05-05T07:59:46Z</time>
      </trkpt>
      <trkpt lat="43.45009" lon="5.83546">
        <ele>440.9</ele>
        <time>2019-05-05T08:00:00Z</time>
      </trkpt>
      <trkpt lat="43.45011" lon="5.83531">
        <ele>443.79</ele>
        <time>2019-05-05T08:00:15Z</time>
      </trkpt>
      <trkpt lat="43.4502" lon="5.83525">
        <ele>446.19</ele>
        <time>2019-05-05T08:00:28Z</time>
      </trkpt>
      <trkpt lat="43.45033" lon="5.8352">
        <ele>447.15</ele>
        <time>2019-05-05T08:00:45Z</time>
      </trkpt>
      <trkpt lat="43.45045" lon="5.83515">
        <ele>447.63</ele>
        <time>2019-05-05T08:00:57Z</time>
      </trkpt>
      <trkpt lat="43.45054" lon="5.83508">
        <ele>451</ele>
        <time>2019-05-05T08:01:08Z</time>
      </trkpt>
      <trkpt lat="43.45066" lon="5.83496">
        <ele>451.96</ele>
        <time>2019-05-05T08:01:26Z</time>
      </trkpt>
      <trkpt lat="43.45079" lon="5.83491">
        <ele>453.88</ele>
        <time>2019-05-05T08:01:40Z</time>
      </trkpt>
      <trkpt lat="43.45093" lon="5.8349">
        <ele>455.32</ele>
        <time>2019-05-05T08:01:56Z</time>
      </trkpt>
      <trkpt lat="43.451" lon="5.8349">
        <ele>458.21</ele>
        <time>2019-05-05T08:02:04Z</time>
      </trkpt>
      <trkpt lat="43.45115" lon="5.83495">
        <ele>457.72</ele>
        <time>2019-05-05T08:02:21Z</time>
      </trkpt>
      <trkpt lat="43.45116" lon="5.83495">
        <ele>457.72</ele>
        <time>2019-05-05T08:02:22Z</time>
      </trkpt>
      <trkpt lat="43.45127" lon="5.83497">
        <ele>461.57</ele>
        <time>2019-05-05T08:02:34Z</time>
      </trkpt>
      <trkpt lat="43.4513" lon="5.83494">
        <ele>463.49</ele>
        <time>2019-05-05T08:02:38Z</time>
      </trkpt>
      <trkpt lat="43.45126" lon="5.83479">
        <ele>463.97</ele>
        <time>2019-05-05T08:02:54Z</time>
      </trkpt>
      <trkpt lat="43.45121" lon="5.83467">
        <ele>467.34</ele>
        <time>2019-05-05T08:03:08Z</time>
      </trkpt>
      <trkpt lat="43.45111" lon="5.83456">
        <ele>467.82</ele>
        <time>2019-05-05T08:03:21Z</time>
      </trkpt>
      <trkpt lat="43.45102" lon="5.83446">
        <ele>467.82</ele>
        <time>2019-05-05T08:03:36Z</time>
      </trkpt>
      <trkpt lat="43.45099" lon="5.83444">
        <ele>467.82</ele>
        <time>2019-05-05T08:03:42Z</time>
      </trkpt>
      <trkpt lat="43.45098" lon="5.83444">
        <ele>467.82</ele>
        <time>2019-05-05T08:03:43Z</time>
      </trkpt>
      <trkpt lat="43.45087" lon="5.83435">
        <ele>469.74</ele>
        <time>2019-05-05T08:03:51Z</time>
      </trkpt>
      <trkpt lat="43.45086" lon="5.83433">
        <ele>469.74</ele>
        <time>2019-05-05T08:03:52Z</time>
      </trkpt>
      <trkpt lat="43.45085" lon="5.83432">
        <ele>470.22</ele>
        <time>2019-05-05T08:03:53Z</time>
      </trkpt>
      <trkpt lat="43.45084" lon="5.8343">
        <ele>470.22</ele>
        <time>2019-05-05T08:03:54Z</time>
      </trkpt>
      <trkpt lat="43.45083" lon="5.83429">
        <ele>471.18</ele>
        <time>2019-05-05T08:03:55Z</time>
      </trkpt>
      <trkpt lat="43.45082" lon="5.83427">
        <ele>471.18</ele>
        <time>2019-05-05T08:03:56Z</time>
      </trkpt>
      <trkpt lat="43.45078" lon="5.83421">
        <ele>472.63</ele>
        <time>2019-05-05T08:04:06Z</time>
      </trkpt>
      <trkpt lat="43.45079" lon="5.8342">
        <ele>472.63</ele>
        <time>2019-05-05T08:04:07Z</time>
      </trkpt>
      <trkpt lat="43.45089" lon="5.83416">
        <ele>474.07</ele>
        <time>2019-05-05T08:04:21Z</time>
      </trkpt>
      <trkpt lat="43.45093" lon="5.83415">
        <ele>475.51</ele>
        <time>2019-05-05T08:04:27Z</time>
      </trkpt>
      <trkpt lat="43.45105" lon="5.83412">
        <ele>477.91</ele>
        <time>2019-05-05T08:04:43Z</time>
      </trkpt>
      <trkpt lat="43.4512" lon="5.83398">
        <ele>480.8</ele>
        <time>2019-05-05T08:05:02Z</time>
      </trkpt>
      <trkpt lat="43.45122" lon="5.83396">
        <ele>481.28</ele>
        <time>2019-05-05T08:05:05Z</time>
      </trkpt>
      <trkpt lat="43.45132" lon="5.83383">
        <ele>482.72</ele>
        <time>2019-05-05T08:05:19Z</time>
      </trkpt>
      <trkpt lat="43.45141" lon="5.83368">
        <ele>484.64</ele>
        <time>2019-05-05T08:05:37Z</time>
      </trkpt>
      <trkpt lat="43.45143" lon="5.83364">
        <ele>483.2</ele>
        <time>2019-05-05T08:05:43Z</time>
      </trkpt>
      <trkpt lat="43.45154" lon="5.83334">
        <ele>483.68</ele>
        <time>2019-05-05T08:05:59Z</time>
      </trkpt>
      <trkpt lat="43.45153" lon="5.83302">
        <ele>487.05</ele>
        <time>2019-05-05T08:06:12Z</time>
      </trkpt>
      <trkpt lat="43.45157" lon="5.83266">
        <ele>488.01</ele>
        <time>2019-05-05T08:06:28Z</time>
      </trkpt>
      <trkpt lat="43.45164" lon="5.83237">
        <ele>488.01</ele>
        <time>2019-05-05T08:06:38Z</time>
      </trkpt>
      <trkpt lat="43.45182" lon="5.83232">
        <ele>490.89</ele>
        <time>2019-05-05T08:06:49Z</time>
      </trkpt>
      <trkpt lat="43.45203" lon="5.83229">
        <ele>492.81</ele>
        <time>2019-05-05T08:07:01Z</time>
      </trkpt>
      <trkpt lat="43.45225" lon="5.83217">
        <ele>495.7</ele>
        <time>2019-05-05T08:07:12Z</time>
      </trkpt>
      <trkpt lat="43.45249" lon="5.83185">
        <ele>498.58</ele>
        <time>2019-05-05T08:07:28Z</time>
      </trkpt>
      <trkpt lat="43.45259" lon="5.83164">
        <ele>501.46</ele>
        <time>2019-05-05T08:07:39Z</time>
      </trkpt>
      <trkpt lat="43.45267" lon="5.83129">
        <ele>504.35</ele>
        <time>2019-05-05T08:07:55Z</time>
      </trkpt>
      <trkpt lat="43.4527" lon="5.83103">
        <ele>506.27</ele>
        <time>2019-05-05T08:08:11Z</time>
      </trkpt>
      <trkpt lat="43.45274" lon="5.83083">
        <ele>508.19</ele>
        <time>2019-05-05T08:08:29Z</time>
      </trkpt>
      <trkpt lat="43.45281" lon="5.83059">
        <ele>509.16</ele>
        <time>2019-05-05T08:08:49Z</time>
      </trkpt>
      <trkpt lat="43.45287" lon="5.83038">
        <ele>511.56</ele>
        <time>2019-05-05T08:09:06Z</time>
      </trkpt>
      <trkpt lat="43.45296" lon="5.83028">
        <ele>513.96</ele>
        <time>2019-05-05T08:09:21Z</time>
      </trkpt>
      <trkpt lat="43.45307" lon="5.83025">
        <ele>515.4</ele>
        <time>2019-05-05T08:09:34Z</time>
      </trkpt>
      <trkpt lat="43.45308" lon="5.83025">
        <ele>515.4</ele>
        <time>2019-05-05T08:09:35Z</time>
      </trkpt>
      <trkpt lat="43.45328" lon="5.8303">
        <ele>516.85</ele>
        <time>2019-05-05T08:09:54Z</time>
      </trkpt>
      <trkpt lat="43.45346" lon="5.83033">
        <ele>518.77</ele>
        <time>2019-05-05T08:10:12Z</time>
      </trkpt>
      <trkpt lat="43.45362" lon="5.83033">
        <ele>521.65</ele>
        <time>2019-05-05T08:10:27Z</time>
      </trkpt>
      <trkpt lat="43.45377" lon="5.83035">
        <ele>524.54</ele>
        <time>2019-05-05T08:10:43Z</time>
      </trkpt>
      <trkpt lat="43.45377" lon="5.83039">
        <ele>525.02</ele>
        <time>2019-05-05T08:10:54Z</time>
      </trkpt>
      <trkpt lat="43.45377" lon="5.83041">
        <ele>524.06</ele>
        <time>2019-05-05T08:11:01Z</time>
      </trkpt>
      <trkpt lat="43.45377" lon="5.83041">
        <ele>525.98</ele>
        <time>2019-05-05T08:11:03Z</time>
      </trkpt>
      <trkpt lat="43.45379" lon="5.83042">
        <ele>525.5</ele>
        <time>2019-05-05T08:11:11Z</time>
      </trkpt>
      <trkpt lat="43.4538" lon="5.83045">
        <ele>527.42</ele>
        <time>2019-05-05T08:11:16Z</time>
      </trkpt>
      <trkpt lat="43.45382" lon="5.83049">
        <ele>526.46</ele>
        <time>2019-05-05T08:11:27Z</time>
      </trkpt>
      <trkpt lat="43.45383" lon="5.83049">
        <ele>528.38</ele>
        <time>2019-05-05T08:11:29Z</time>
      </trkpt>
      <trkpt lat="43.45382" lon="5.8305">
        <ele>525.5</ele>
        <time>2019-05-05T08:11:40Z</time>
      </trkpt>
      <trkpt lat="43.45382" lon="5.8305">
        <ele>527.42</ele>
        <time>2019-05-05T08:11:42Z</time>
      </trkpt>
      <trkpt lat="43.45382" lon="5.8305">
        <ele>526.94</ele>
        <time>2019-05-05T08:11:51Z</time>
      </trkpt>
      <trkpt lat="43.45382" lon="5.8305">
        <ele>529.82</ele>
        <time>2019-05-05T08:11:59Z</time>
      </trkpt>
      <trkpt lat="43.45382" lon="5.83049">
        <ele>528.38</ele>
        <time>2019-05-05T08:12:01Z</time>
      </trkpt>
      <trkpt lat="43.45382" lon="5.8305">
        <ele>526.94</ele>
        <time>2019-05-05T08:12:08Z</time>
      </trkpt>
      <trkpt lat="43.45382" lon="5.83049">
        <ele>529.34</ele>
        <time>2019-05-05T08:12:10Z</time>
      </trkpt>
      <trkpt lat="43.45382" lon="5.83049">
        <ele>527.42</ele>
        <time>2019-05-05T08:12:12Z</time>
      </trkpt>
      <trkpt lat="43.45382" lon="5.83049">
        <ele>528.38</ele>
        <time>2019-05-05T08:12:16Z</time>
      </trkpt>
      <trkpt lat="43.45382" lon="5.83049">
        <ele>525.5</ele>
        <time>2019-05-05T08:12:22Z</time>
      </trkpt>
      <trkpt lat="43.45382" lon="5.83049">
        <ele>526.46</ele>
        <time>2019-05-05T08:12:30Z</time>
      </trkpt>
      <trkpt lat="43.45383" lon="5.8305">
        <ele>527.42</ele>
        <time>2019-05-05T08:12:55Z</time>
      </trkpt>
      <trkpt lat="43.45383" lon="5.83049">
        <ele>526.46</ele>
        <time>2019-05-05T08:13:00Z</time>
      </trkpt>
      <trkpt lat="43.45383" lon="5.83049">
        <ele>524.54</ele>
        <time>2019-05-05T08:13:24Z</time>
      </trkpt>
      <trkpt lat="43.45383" lon="5.83049">
        <ele>526.46</ele>
        <time>2019-05-05T08:13:26Z</time>
      </trkpt>
      <trkpt lat="43.45383" lon="5.83049">
        <ele>525.5</ele>
        <time>2019-05-05T08:13:28Z</time>
      </trkpt>
      <trkpt lat="43.45383" lon="5.83049">
        <ele>525.5</ele>
        <time>2019-05-05T08:13:42Z</time>
      </trkpt>
      <trkpt lat="43.45382" lon="5.83049">
        <ele>526.94</ele>
        <time>2019-05-05T08:14:08Z</time>
      </trkpt>
      <trkpt lat="43.45383" lon="5.83049">
        <ele>525.5</ele>
        <time>2019-05-05T08:14:14Z</time>
      </trkpt>
      <trkpt lat="43.45383" lon="5.83049">
        <ele>526.94</ele>
        <time>2019-05-05T08:14:16Z</time>
      </trkpt>
      <trkpt lat="43.45382" lon="5.83049">
        <ele>525.5</ele>
        <time>2019-05-05T08:14:22Z</time>
      </trkpt>
      <trkpt lat="43.45382" lon="5.8305">
        <ele>527.9</ele>
        <time>2019-05-05T08:14:31Z</time>
      </trkpt>
      <trkpt lat="43.45383" lon="5.83049">
        <ele>527.9</ele>
        <time>2019-05-05T08:14:44Z</time>
      </trkpt>
      <trkpt lat="43.45383" lon="5.8305">
        <ele>525.5</ele>
        <time>2019-05-05T08:15:05Z</time>
      </trkpt>
      <trkpt lat="43.45383" lon="5.8305">
        <ele>526.94</ele>
        <time>2019-05-05T08:15:34Z</time>
      </trkpt>
      <trkpt lat="43.45383" lon="5.8305">
        <ele>526.46</ele>
        <time>2019-05-05T08:15:48Z</time>
      </trkpt>
      <trkpt lat="43.45383" lon="5.8305">
        <ele>525.5</ele>
        <time>2019-05-05T08:16:10Z</time>
      </trkpt>
      <trkpt lat="43.45383" lon="5.83052">
        <ele>525.98</ele>
        <time>2019-05-05T08:16:25Z</time>
      </trkpt>
      <trkpt lat="43.45385" lon="5.83055">
        <ele>525.02</ele>
        <time>2019-05-05T08:16:29Z</time>
      </trkpt>
      <trkpt lat="43.45385" lon="5.83055">
        <ele>526.94</ele>
        <time>2019-05-05T08:16:31Z</time>
      </trkpt>
      <trkpt lat="43.45386" lon="5.83056">
        <ele>525.98</ele>
        <time>2019-05-05T08:16:35Z</time>
      </trkpt>
      <trkpt lat="43.45386" lon="5.83055">
        <ele>527.42</ele>
        <time>2019-05-05T08:16:38Z</time>
      </trkpt>
      <trkpt lat="43.45385" lon="5.83054">
        <ele>527.42</ele>
        <time>2019-05-05T08:16:41Z</time>
      </trkpt>
      <trkpt lat="43.45383" lon="5.83052">
        <ele>525.98</ele>
        <time>2019-05-05T08:16:44Z</time>
      </trkpt>
      <trkpt lat="43.45382" lon="5.8305">
        <ele>527.9</ele>
        <time>2019-05-05T08:16:48Z</time>
      </trkpt>
      <trkpt lat="43.45382" lon="5.8305">
        <ele>524.54</ele>
        <time>2019-05-05T08:16:59Z</time>
      </trkpt>
      <trkpt lat="43.45382" lon="5.8305">
        <ele>525.98</ele>
        <time>2019-05-05T08:17:02Z</time>
      </trkpt>
      <trkpt lat="43.45382" lon="5.8305">
        <ele>524.06</ele>
        <time>2019-05-05T08:17:09Z</time>
      </trkpt>
      <trkpt lat="43.45382" lon="5.8305">
        <ele>527.42</ele>
        <time>2019-05-05T08:17:24Z</time>
      </trkpt>
      <trkpt lat="43.45382" lon="5.8305">
        <ele>526.94</ele>
        <time>2019-05-05T08:17:28Z</time>
      </trkpt>
      <trkpt lat="43.45382" lon="5.8305">
        <ele>524.54</ele>
        <time>2019-05-05T08:17:32Z</time>
      </trkpt>
      <trkpt lat="43.45382" lon="5.8305">
        <ele>525.98</ele>
        <time>2019-05-05T08:17:40Z</time>
      </trkpt>
      <trkpt lat="43.45382" lon="5.8305">
        <ele>525.98</ele>
        <time>2019-05-05T08:18:04Z</time>
      </trkpt>
      <trkpt lat="43.45381" lon="5.8305">
        <ele>524.54</ele>
        <time>2019-05-05T08:18:10Z</time>
      </trkpt>
      <trkpt lat="43.45381" lon="5.8305">
        <ele>525.02</ele>
        <time>2019-05-05T08:18:16Z</time>
      </trkpt>
      <trkpt lat="43.45381" lon="5.8305">
        <ele>525.02</ele>
        <time>2019-05-05T08:18:30Z</time>
      </trkpt>
      <trkpt lat="43.45382" lon="5.8305">
        <ele>525.02</ele>
        <time>2019-05-05T08:19:12Z</time>
      </trkpt>
      <trkpt lat="43.45382" lon="5.83049">
        <ele>523.58</ele>
        <time>2019-05-05T08:19:21Z</time>
      </trkpt>
      <trkpt lat="43.45382" lon="5.8305">
        <ele>525.98</ele>
        <time>2019-05-05T08:19:35Z</time>
      </trkpt>
      <trkpt lat="43.45382" lon="5.8305">
        <ele>524.54</ele>
        <time>2019-05-05T08:19:37Z</time>
      </trkpt>
      <trkpt lat="43.4538" lon="5.83046">
        <ele>521.65</ele>
        <time>2019-05-05T08:19:52Z</time>
      </trkpt>
      <trkpt lat="43.4538" lon="5.83044">
        <ele>522.13</ele>
        <time>2019-05-05T08:19:58Z</time>
      </trkpt>
      <trkpt lat="43.45379" lon="5.83042">
        <ele>521.17</ele>
        <time>2019-05-05T08:20:08Z</time>
      </trkpt>
      <trkpt lat="43.45378" lon="5.83037">
        <ele>519.73</ele>
        <time>2019-05-05T08:20:13Z</time>
      </trkpt>
      <trkpt lat="43.45377" lon="5.83037">
        <ele>520.21</ele>
        <time>2019-05-05T08:20:18Z</time>
      </trkpt>
      <trkpt lat="43.4538" lon="5.83023">
        <ele>518.77</ele>
        <time>2019-05-05T08:20:37Z</time>
      </trkpt>
      <trkpt lat="43.4538" lon="5.83021">
        <ele>518.77</ele>
        <time>2019-05-05T08:20:38Z</time>
      </trkpt>
      <trkpt lat="43.45379" lon="5.8301">
        <ele>517.33</ele>
        <time>2019-05-05T08:20:43Z</time>
      </trkpt>
      <trkpt lat="43.45378" lon="5.82998">
        <ele>516.85</ele>
        <time>2019-05-05T08:20:49Z</time>
      </trkpt>
      <trkpt lat="43.45373" lon="5.82962">
        <ele>514.44</ele>
        <time>2019-05-05T08:21:05Z</time>
      </trkpt>
      <trkpt lat="43.45371" lon="5.82922">
        <ele>511.08</ele>
        <time>2019-05-05T08:21:14Z</time>
      </trkpt>
      <trkpt lat="43.45372" lon="5.82897">
        <ele>511.08</ele>
        <time>2019-05-05T08:21:18Z</time>
      </trkpt>
      <trkpt lat="43.45373" lon="5.8289">
        <ele>510.6</ele>
        <time>2019-05-05T08:21:19Z</time>
      </trkpt>
      <trkpt lat="43.45382" lon="5.82817">
        <ele>507.23</ele>
        <time>2019-05-05T08:21:31Z</time>
      </trkpt>
      <trkpt lat="43.45382" lon="5.8281">
        <ele>507.23</ele>
        <time>2019-05-05T08:21:32Z</time>
      </trkpt>
      <trkpt lat="43.45383" lon="5.82804">
        <ele>506.75</ele>
        <time>2019-05-05T08:21:33Z</time>
      </trkpt>
      <trkpt lat="43.45382" lon="5.82799">
        <ele>506.75</ele>
        <time>2019-05-05T08:21:34Z</time>
      </trkpt>
      <trkpt lat="43.45381" lon="5.82793">
        <ele>506.27</ele>
        <time>2019-05-05T08:21:35Z</time>
      </trkpt>
      <trkpt lat="43.45376" lon="5.82775">
        <ele>505.79</ele>
        <time>2019-05-05T08:21:38Z</time>
      </trkpt>
      <trkpt lat="43.45372" lon="5.82734">
        <ele>503.39</ele>
        <time>2019-05-05T08:21:45Z</time>
      </trkpt>
      <trkpt lat="43.4537" lon="5.82727">
        <ele>502.91</ele>
        <time>2019-05-05T08:21:46Z</time>
      </trkpt>
      <trkpt lat="43.45363" lon="5.827">
        <ele>499.54</ele>
        <time>2019-05-05T08:21:50Z</time>
      </trkpt>
      <trkpt lat="43.45362" lon="5.82694">
        <ele>499.06</ele>
        <time>2019-05-05T08:21:51Z</time>
      </trkpt>
      <trkpt lat="43.45361" lon="5.82689">
        <ele>499.06</ele>
        <time>2019-05-05T08:21:52Z</time>
      </trkpt>
      <trkpt lat="43.45359" lon="5.82682">
        <ele>499.06</ele>
        <time>2019-05-05T08:21:53Z</time>
      </trkpt>
      <trkpt lat="43.45359" lon="5.82676">
        <ele>497.14</ele>
        <time>2019-05-05T08:21:54Z</time>
      </trkpt>
      <trkpt lat="43.45358" lon="5.82669">
        <ele>497.14</ele>
        <time>2019-05-05T08:21:55Z</time>
      </trkpt>
      <trkpt lat="43.45357" lon="5.82662">
        <ele>495.7</ele>
        <time>2019-05-05T08:21:56Z</time>
      </trkpt>
      <trkpt lat="43.45354" lon="5.82641">
        <ele>494.26</ele>
        <time>2019-05-05T08:21:59Z</time>
      </trkpt>
      <trkpt lat="43.45351" lon="5.82621">
        <ele>492.81</ele>
        <time>2019-05-05T08:22:02Z</time>
      </trkpt>
      <trkpt lat="43.45351" lon="5.82614">
        <ele>492.81</ele>
        <time>2019-05-05T08:22:03Z</time>
      </trkpt>
      <trkpt lat="43.45351" lon="5.82607">
        <ele>492.81</ele>
        <time>2019-05-05T08:22:04Z</time>
      </trkpt>
      <trkpt lat="43.45352" lon="5.82601">
        <ele>492.81</ele>
        <time>2019-05-05T08:22:05Z</time>
      </trkpt>
      <trkpt lat="43.45352" lon="5.82596">
        <ele>492.81</ele>
        <time>2019-05-05T08:22:06Z</time>
      </trkpt>
      <trkpt lat="43.45352" lon="5.82591">
        <ele>492.33</ele>
        <time>2019-05-05T08:22:07Z</time>
      </trkpt>
      <trkpt lat="43.45352" lon="5.82586">
        <ele>492.33</ele>
        <time>2019-05-05T08:22:08Z</time>
      </trkpt>
      <trkpt lat="43.45351" lon="5.82581">
        <ele>492.33</ele>
        <time>2019-05-05T08:22:09Z</time>
      </trkpt>
      <trkpt lat="43.4535" lon="5.82577">
        <ele>490.89</ele>
        <time>2019-05-05T08:22:10Z</time>
      </trkpt>
      <trkpt lat="43.45349" lon="5.82572">
        <ele>489.93</ele>
        <time>2019-05-05T08:22:11Z</time>
      </trkpt>
      <trkpt lat="43.45347" lon="5.82568">
        <ele>489.93</ele>
        <time>2019-05-05T08:22:12Z</time>
      </trkpt>
      <trkpt lat="43.45346" lon="5.82563">
        <ele>489.93</ele>
        <time>2019-05-05T08:22:13Z</time>
      </trkpt>
      <trkpt lat="43.45342" lon="5.82552">
        <ele>489.45</ele>
        <time>2019-05-05T08:22:15Z</time>
      </trkpt>
      <trkpt lat="43.45341" lon="5.82546">
        <ele>489.45</ele>
        <time>2019-05-05T08:22:16Z</time>
      </trkpt>
      <trkpt lat="43.45328" lon="5.82491">
        <ele>486.56</ele>
        <time>2019-05-05T08:22:26Z</time>
      </trkpt>
      <trkpt lat="43.45324" lon="5.82486">
        <ele>486.08</ele>
        <time>2019-05-05T08:22:28Z</time>
      </trkpt>
      <trkpt lat="43.45318" lon="5.8248">
        <ele>487.53</ele>
        <time>2019-05-05T08:22:33Z</time>
      </trkpt>
      <trkpt lat="43.45298" lon="5.82471">
        <ele>485.6</ele>
        <time>2019-05-05T08:22:41Z</time>
      </trkpt>
      <trkpt lat="43.45263" lon="5.82469">
        <ele>484.64</ele>
        <time>2019-05-05T08:22:53Z</time>
      </trkpt>
      <trkpt lat="43.45262" lon="5.82466">
        <ele>484.64</ele>
        <time>2019-05-05T08:22:54Z</time>
      </trkpt>
      <trkpt lat="43.45262" lon="5.82462">
        <ele>484.64</ele>
        <time>2019-05-05T08:22:55Z</time>
      </trkpt>
      <trkpt lat="43.45262" lon="5.82459">
        <ele>484.64</ele>
        <time>2019-05-05T08:22:56Z</time>
      </trkpt>
      <trkpt lat="43.45263" lon="5.82455">
        <ele>484.64</ele>
        <time>2019-05-05T08:22:57Z</time>
      </trkpt>
      <trkpt lat="43.45264" lon="5.82451">
        <ele>484.16</ele>
        <time>2019-05-05T08:22:58Z</time>
      </trkpt>
      <trkpt lat="43.45272" lon="5.82424">
        <ele>482.72</ele>
        <time>2019-05-05T08:23:05Z</time>
      </trkpt>
      <trkpt lat="43.45275" lon="5.82413">
        <ele>481.28</ele>
        <time>2019-05-05T08:23:07Z</time>
      </trkpt>
      <trkpt lat="43.45284" lon="5.82398">
        <ele>480.8</ele>
        <time>2019-05-05T08:23:10Z</time>
      </trkpt>
      <trkpt lat="43.45297" lon="5.8238">
        <ele>479.84</ele>
        <time>2019-05-05T08:23:14Z</time>
      </trkpt>
      <trkpt lat="43.45299" lon="5.82374">
        <ele>479.84</ele>
        <time>2019-05-05T08:23:15Z</time>
      </trkpt>
      <trkpt lat="43.453" lon="5.82369">
        <ele>479.84</ele>
        <time>2019-05-05T08:23:16Z</time>
      </trkpt>
      <trkpt lat="43.45301" lon="5.82364">
        <ele>479.35</ele>
        <time>2019-05-05T08:23:17Z</time>
      </trkpt>
      <trkpt lat="43.45301" lon="5.82359">
        <ele>479.84</ele>
        <time>2019-05-05T08:23:18Z</time>
      </trkpt>
      <trkpt lat="43.45301" lon="5.82352">
        <ele>478.87</ele>
        <time>2019-05-05T08:23:19Z</time>
      </trkpt>
      <trkpt lat="43.45301" lon="5.82344">
        <ele>478.39</ele>
        <time>2019-05-05T08:23:20Z</time>
      </trkpt>
      <trkpt lat="43.45301" lon="5.82337">
        <ele>478.39</ele>
        <time>2019-05-05T08:23:21Z</time>
      </trkpt>
      <trkpt lat="43.45299" lon="5.82302">
        <ele>475.03</ele>
        <time>2019-05-05T08:23:26Z</time>
      </trkpt>
      <trkpt lat="43.45298" lon="5.82267">
        <ele>473.59</ele>
        <time>2019-05-05T08:23:31Z</time>
      </trkpt>
      <trkpt lat="43.45297" lon="5.82241">
        <ele>471.66</ele>
        <time>2019-05-05T08:23:35Z</time>
      </trkpt>
      <trkpt lat="43.45296" lon="5.82228">
        <ele>470.7</ele>
        <time>2019-05-05T08:23:37Z</time>
      </trkpt>
      <trkpt lat="43.45294" lon="5.82205">
        <ele>468.78</ele>
        <time>2019-05-05T08:23:41Z</time>
      </trkpt>
      <trkpt lat="43.45292" lon="5.82186">
        <ele>467.82</ele>
        <time>2019-05-05T08:23:44Z</time>
      </trkpt>
      <trkpt lat="43.45291" lon="5.8218">
        <ele>467.34</ele>
        <time>2019-05-05T08:23:45Z</time>
      </trkpt>
      <trkpt lat="43.45288" lon="5.82167">
        <ele>466.38</ele>
        <time>2019-05-05T08:23:47Z</time>
      </trkpt>
      <trkpt lat="43.45287" lon="5.82161">
        <ele>466.38</ele>
        <time>2019-05-05T08:23:48Z</time>
      </trkpt>
      <trkpt lat="43.45287" lon="5.82155">
        <ele>465.42</ele>
        <time>2019-05-05T08:23:49Z</time>
      </trkpt>
      <trkpt lat="43.45286" lon="5.82142">
        <ele>464.45</ele>
        <time>2019-05-05T08:23:51Z</time>
      </trkpt>
      <trkpt lat="43.45285" lon="5.82121">
        <ele>462.53</ele>
        <time>2019-05-05T08:23:54Z</time>
      </trkpt>
      <trkpt lat="43.45273" lon="5.8207">
        <ele>461.09</ele>
        <time>2019-05-05T08:24:04Z</time>
      </trkpt>
      <trkpt lat="43.45267" lon="5.82059">
        <ele>460.61</ele>
        <time>2019-05-05T08:24:06Z</time>
      </trkpt>
      <trkpt lat="43.45257" lon="5.82043">
        <ele>458.69</ele>
        <time>2019-05-05T08:24:09Z</time>
      </trkpt>
      <trkpt lat="43.45253" lon="5.82036">
        <ele>458.69</ele>
        <time>2019-05-05T08:24:10Z</time>
      </trkpt>
      <trkpt lat="43.45233" lon="5.82004">
        <ele>455.32</ele>
        <time>2019-05-05T08:24:16Z</time>
      </trkpt>
      <trkpt lat="43.45231" lon="5.81999">
        <ele>455.32</ele>
        <time>2019-05-05T08:24:17Z</time>
      </trkpt>
      <trkpt lat="43.45229" lon="5.81993">
        <ele>456.76</ele>
        <time>2019-05-05T08:24:18Z</time>
      </trkpt>
      <trkpt lat="43.45227" lon="5.81988">
        <ele>456.76</ele>
        <time>2019-05-05T08:24:19Z</time>
      </trkpt>
      <trkpt lat="43.45219" lon="5.81972">
        <ele>453.4</ele>
        <time>2019-05-05T08:24:22Z</time>
      </trkpt>
      <trkpt lat="43.45216" lon="5.81966">
        <ele>453.4</ele>
        <time>2019-05-05T08:24:23Z</time>
      </trkpt>
      <trkpt lat="43.45213" lon="5.81961">
        <ele>452.92</ele>
        <time>2019-05-05T08:24:24Z</time>
      </trkpt>
      <trkpt lat="43.4521" lon="5.81957">
        <ele>452.44</ele>
        <time>2019-05-05T08:24:25Z</time>
      </trkpt>
      <trkpt lat="43.45189" lon="5.81929">
        <ele>451.48</ele>
        <time>2019-05-05T08:24:32Z</time>
      </trkpt>
      <trkpt lat="43.45167" lon="5.8191">
        <ele>451</ele>
        <time>2019-05-05T08:24:37Z</time>
      </trkpt>
      <trkpt lat="43.45164" lon="5.81905">
        <ele>450.52</ele>
        <time>2019-05-05T08:24:38Z</time>
      </trkpt>
      <trkpt lat="43.4516" lon="5.81901">
        <ele>449.07</ele>
        <time>2019-05-05T08:24:39Z</time>
      </trkpt>
      <trkpt lat="43.45157" lon="5.81897">
        <ele>449.07</ele>
        <time>2019-05-05T08:24:40Z</time>
      </trkpt>
      <trkpt lat="43.45142" lon="5.81881">
        <ele>446.19</ele>
        <time>2019-05-05T08:24:45Z</time>
      </trkpt>
      <trkpt lat="43.45139" lon="5.81877">
        <ele>446.19</ele>
        <time>2019-05-05T08:24:46Z</time>
      </trkpt>
      <trkpt lat="43.45116" lon="5.81855">
        <ele>444.27</ele>
        <time>2019-05-05T08:24:53Z</time>
      </trkpt>
      <trkpt lat="43.45111" lon="5.81852">
        <ele>443.79</ele>
        <time>2019-05-05T08:24:54Z</time>
      </trkpt>
      <trkpt lat="43.45099" lon="5.81846">
        <ele>441.86</ele>
        <time>2019-05-05T08:24:57Z</time>
      </trkpt>
      <trkpt lat="43.45084" lon="5.81836">
        <ele>438.98</ele>
        <time>2019-05-05T08:25:02Z</time>
      </trkpt>
      <trkpt lat="43.45081" lon="5.81833">
        <ele>438.98</ele>
        <time>2019-05-05T08:25:03Z</time>
      </trkpt>
      <trkpt lat="43.45048" lon="5.81799">
        <ele>436.1</ele>
        <time>2019-05-05T08:25:14Z</time>
      </trkpt>
      <trkpt lat="43.4504" lon="5.81787">
        <ele>434.65</ele>
        <time>2019-05-05T08:25:17Z</time>
      </trkpt>
      <trkpt lat="43.45037" lon="5.81781">
        <ele>434.65</ele>
        <time>2019-05-05T08:25:18Z</time>
      </trkpt>
      <trkpt lat="43.45035" lon="5.81776">
        <ele>434.65</ele>
        <time>2019-05-05T08:25:19Z</time>
      </trkpt>
      <trkpt lat="43.45033" lon="5.81772">
        <ele>434.65</ele>
        <time>2019-05-05T08:25:20Z</time>
      </trkpt>
      <trkpt lat="43.45032" lon="5.81769">
        <ele>434.65</ele>
        <time>2019-05-05T08:25:21Z</time>
      </trkpt>
      <trkpt lat="43.45032" lon="5.81767">
        <ele>434.65</ele>
        <time>2019-05-05T08:25:22Z</time>
      </trkpt>
      <trkpt lat="43.45032" lon="5.81765">
        <ele>434.65</ele>
        <time>2019-05-05T08:25:23Z</time>
      </trkpt>
      <trkpt lat="43.45033" lon="5.81763">
        <ele>434.65</ele>
        <time>2019-05-05T08:25:24Z</time>
      </trkpt>
      <trkpt lat="43.45033" lon="5.8176">
        <ele>435.61</ele>
        <time>2019-05-05T08:25:25Z</time>
      </trkpt>
      <trkpt lat="43.45035" lon="5.8174">
        <ele>437.06</ele>
        <time>2019-05-05T08:25:36Z</time>
      </trkpt>
      <trkpt lat="43.45036" lon="5.81739">
        <ele>435.61</ele>
        <time>2019-05-05T08:25:53Z</time>
      </trkpt>
      <trkpt lat="43.45035" lon="5.81735">
        <ele>437.54</ele>
        <time>2019-05-05T08:26:06Z</time>
      </trkpt>
      <trkpt lat="43.45035" lon="5.81733">
        <ele>437.54</ele>
        <time>2019-05-05T08:26:07Z</time>
      </trkpt>
      <trkpt lat="43.45035" lon="5.81731">
        <ele>438.02</ele>
        <time>2019-05-05T08:26:08Z</time>
      </trkpt>
      <trkpt lat="43.45034" lon="5.81728">
        <ele>438.02</ele>
        <time>2019-05-05T08:26:11Z</time>
      </trkpt>
      <trkpt lat="43.45032" lon="5.81727">
        <ele>438.02</ele>
        <time>2019-05-05T08:26:12Z</time>
      </trkpt>
      <trkpt lat="43.45031" lon="5.81726">
        <ele>438.02</ele>
        <time>2019-05-05T08:26:13Z</time>
      </trkpt>
      <trkpt lat="43.45025" lon="5.81725">
        <ele>438.02</ele>
        <time>2019-05-05T08:26:19Z</time>
      </trkpt>
      <trkpt lat="43.45024" lon="5.81724">
        <ele>438.02</ele>
        <time>2019-05-05T08:26:20Z</time>
      </trkpt>
      <trkpt lat="43.45022" lon="5.81724">
        <ele>438.02</ele>
        <time>2019-05-05T08:26:21Z</time>
      </trkpt>
      <trkpt lat="43.45021" lon="5.81723">
        <ele>438.5</ele>
        <time>2019-05-05T08:26:22Z</time>
      </trkpt>
      <trkpt lat="43.45019" lon="5.81723">
        <ele>438.5</ele>
        <time>2019-05-05T08:26:23Z</time>
      </trkpt>
      <trkpt lat="43.45003" lon="5.8172">
        <ele>440.9</ele>
        <time>2019-05-05T08:26:34Z</time>
      </trkpt>
      <trkpt lat="43.4498" lon="5.81726">
        <ele>441.38</ele>
        <time>2019-05-05T08:26:47Z</time>
      </trkpt>
      <trkpt lat="43.44953" lon="5.81742">
        <ele>443.31</ele>
        <time>2019-05-05T08:27:00Z</time>
      </trkpt>
      <trkpt lat="43.44926" lon="5.8175">
        <ele>446.19</ele>
        <time>2019-05-05T08:27:13Z</time>
      </trkpt>
      <trkpt lat="43.44911" lon="5.81761">
        <ele>448.11</ele>
        <time>2019-05-05T08:27:24Z</time>
      </trkpt>
      <trkpt lat="43.44899" lon="5.81771">
        <ele>449.55</ele>
        <time>2019-05-05T08:27:31Z</time>
      </trkpt>
      <trkpt lat="43.44876" lon="5.81772">
        <ele>452.92</ele>
        <time>2019-05-05T08:27:45Z</time>
      </trkpt>
      <trkpt lat="43.44851" lon="5.81777">
        <ele>455.32</ele>
        <time>2019-05-05T08:27:57Z</time>
      </trkpt>
      <trkpt lat="43.44832" lon="5.81787">
        <ele>457.24</ele>
        <time>2019-05-05T08:28:10Z</time>
      </trkpt>
      <trkpt lat="43.44821" lon="5.81794">
        <ele>459.17</ele>
        <time>2019-05-05T08:28:19Z</time>
      </trkpt>
      <trkpt lat="43.44801" lon="5.81798">
        <ele>462.05</ele>
        <time>2019-05-05T08:28:31Z</time>
      </trkpt>
      <trkpt lat="43.44798" lon="5.81799">
        <ele>462.53</ele>
        <time>2019-05-05T08:28:33Z</time>
      </trkpt>
      <trkpt lat="43.44797" lon="5.818">
        <ele>462.53</ele>
        <time>2019-05-05T08:28:34Z</time>
      </trkpt>
      <trkpt lat="43.44795" lon="5.81801">
        <ele>462.53</ele>
        <time>2019-05-05T08:28:35Z</time>
      </trkpt>
      <trkpt lat="43.44793" lon="5.81801">
        <ele>462.53</ele>
        <time>2019-05-05T08:28:36Z</time>
      </trkpt>
      <trkpt lat="43.44792" lon="5.81802">
        <ele>462.53</ele>
        <time>2019-05-05T08:28:37Z</time>
      </trkpt>
      <trkpt lat="43.4479" lon="5.81803">
        <ele>463.01</ele>
        <time>2019-05-05T08:28:38Z</time>
      </trkpt>
      <trkpt lat="43.4478" lon="5.81807">
        <ele>464.45</ele>
        <time>2019-05-05T08:28:44Z</time>
      </trkpt>
      <trkpt lat="43.44773" lon="5.81816">
        <ele>465.9</ele>
        <time>2019-05-05T08:28:49Z</time>
      </trkpt>
      <trkpt lat="43.4476" lon="5.8185">
        <ele>465.9</ele>
        <time>2019-05-05T08:29:03Z</time>
      </trkpt>
      <trkpt lat="43.44746" lon="5.81868">
        <ele>466.86</ele>
        <time>2019-05-05T08:29:18Z</time>
      </trkpt>
      <trkpt lat="43.44737" lon="5.81891">
        <ele>468.78</ele>
        <time>2019-05-05T08:29:34Z</time>
      </trkpt>
      <trkpt lat="43.44729" lon="5.8191">
        <ele>470.7</ele>
        <time>2019-05-05T08:29:52Z</time>
      </trkpt>
      <trkpt lat="43.44718" lon="5.81927">
        <ele>473.11</ele>
        <time>2019-05-05T08:30:10Z</time>
      </trkpt>
      <trkpt lat="43.44708" lon="5.81942">
        <ele>475.03</ele>
        <time>2019-05-05T08:30:24Z</time>
      </trkpt>
      <trkpt lat="43.44701" lon="5.81947">
        <ele>476.95</ele>
        <time>2019-05-05T08:30:32Z</time>
      </trkpt>
      <trkpt lat="43.44691" lon="5.8195">
        <ele>475.51</ele>
        <time>2019-05-05T08:30:40Z</time>
      </trkpt>
      <trkpt lat="43.44689" lon="5.81951">
        <ele>475.51</ele>
        <time>2019-05-05T08:30:42Z</time>
      </trkpt>
      <trkpt lat="43.44688" lon="5.81951">
        <ele>475.51</ele>
        <time>2019-05-05T08:30:43Z</time>
      </trkpt>
      <trkpt lat="43.44671" lon="5.81962">
        <ele>476.47</ele>
        <time>2019-05-05T08:31:00Z</time>
      </trkpt>
      <trkpt lat="43.44662" lon="5.81969">
        <ele>477.43</ele>
        <time>2019-05-05T08:31:13Z</time>
      </trkpt>
      <trkpt lat="43.44649" lon="5.81988">
        <ele>479.35</ele>
        <time>2019-05-05T08:31:29Z</time>
      </trkpt>
      <trkpt lat="43.44636" lon="5.82">
        <ele>480.32</ele>
        <time>2019-05-05T08:31:45Z</time>
      </trkpt>
      <trkpt lat="43.44633" lon="5.82002">
        <ele>481.28</ele>
        <time>2019-05-05T08:31:49Z</time>
      </trkpt>
      <trkpt lat="43.44623" lon="5.82011">
        <ele>483.2</ele>
        <time>2019-05-05T08:31:59Z</time>
      </trkpt>
      <trkpt lat="43.44613" lon="5.82023">
        <ele>484.64</ele>
        <time>2019-05-05T08:32:14Z</time>
      </trkpt>
      <trkpt lat="43.446" lon="5.82038">
        <ele>485.12</ele>
        <time>2019-05-05T08:32:31Z</time>
      </trkpt>
      <trkpt lat="43.44592" lon="5.82047">
        <ele>487.53</ele>
        <time>2019-05-05T08:32:40Z</time>
      </trkpt>
      <trkpt lat="43.44579" lon="5.82059">
        <ele>488.49</ele>
        <time>2019-05-05T08:32:55Z</time>
      </trkpt>
      <trkpt lat="43.44578" lon="5.82059">
        <ele>488.49</ele>
        <time>2019-05-05T08:32:56Z</time>
      </trkpt>
      <trkpt lat="43.4456" lon="5.82067">
        <ele>490.41</ele>
        <time>2019-05-05T08:33:12Z</time>
      </trkpt>
      <trkpt lat="43.44546" lon="5.82071">
        <ele>491.37</ele>
        <time>2019-05-05T08:33:25Z</time>
      </trkpt>
      <trkpt lat="43.44539" lon="5.82075">
        <ele>492.33</ele>
        <time>2019-05-05T08:33:33Z</time>
      </trkpt>
      <trkpt lat="43.44527" lon="5.82083">
        <ele>493.77</ele>
        <time>2019-05-05T08:33:47Z</time>
      </trkpt>
      <trkpt lat="43.44515" lon="5.82096">
        <ele>494.26</ele>
        <time>2019-05-05T08:34:03Z</time>
      </trkpt>
      <trkpt lat="43.44506" lon="5.82108">
        <ele>497.62</ele>
        <time>2019-05-05T08:34:16Z</time>
      </trkpt>
      <trkpt lat="43.44495" lon="5.82127">
        <ele>500.98</ele>
        <time>2019-05-05T08:34:34Z</time>
      </trkpt>
      <trkpt lat="43.44494" lon="5.82129">
        <ele>501.95</ele>
        <time>2019-05-05T08:34:49Z</time>
      </trkpt>
      <trkpt lat="43.44494" lon="5.82131">
        <ele>500.5</ele>
        <time>2019-05-05T08:34:54Z</time>
      </trkpt>
      <trkpt lat="43.44492" lon="5.8213">
        <ele>501.95</ele>
        <time>2019-05-05T08:34:57Z</time>
      </trkpt>
      <trkpt lat="43.44491" lon="5.8213">
        <ele>501.95</ele>
        <time>2019-05-05T08:34:58Z</time>
      </trkpt>
      <trkpt lat="43.44489" lon="5.82129">
        <ele>501.95</ele>
        <time>2019-05-05T08:34:59Z</time>
      </trkpt>
      <trkpt lat="43.44488" lon="5.82129">
        <ele>501.95</ele>
        <time>2019-05-05T08:35:00Z</time>
      </trkpt>
      <trkpt lat="43.44486" lon="5.82129">
        <ele>501.95</ele>
        <time>2019-05-05T08:35:01Z</time>
      </trkpt>
      <trkpt lat="43.44484" lon="5.8213">
        <ele>501.95</ele>
        <time>2019-05-05T08:35:02Z</time>
      </trkpt>
      <trkpt lat="43.44482" lon="5.82131">
        <ele>501.95</ele>
        <time>2019-05-05T08:35:03Z</time>
      </trkpt>
      <trkpt lat="43.44482" lon="5.82132">
        <ele>501.95</ele>
        <time>2019-05-05T08:35:04Z</time>
      </trkpt>
      <trkpt lat="43.44481" lon="5.82134">
        <ele>501.95</ele>
        <time>2019-05-05T08:35:05Z</time>
      </trkpt>
      <trkpt lat="43.4448" lon="5.82135">
        <ele>501.95</ele>
        <time>2019-05-05T08:35:06Z</time>
      </trkpt>
      <trkpt lat="43.44463" lon="5.82157">
        <ele>500.98</ele>
        <time>2019-05-05T08:35:18Z</time>
      </trkpt>
      <trkpt lat="43.44462" lon="5.82159">
        <ele>500.5</ele>
        <time>2019-05-05T08:35:19Z</time>
      </trkpt>
      <trkpt lat="43.44439" lon="5.82198">
        <ele>499.06</ele>
        <time>2019-05-05T08:35:32Z</time>
      </trkpt>
      <trkpt lat="43.44423" lon="5.82236">
        <ele>498.1</ele>
        <time>2019-05-05T08:35:41Z</time>
      </trkpt>
      <trkpt lat="43.44421" lon="5.82242">
        <ele>498.1</ele>
        <time>2019-05-05T08:35:42Z</time>
      </trkpt>
      <trkpt lat="43.4442" lon="5.82247">
        <ele>498.1</ele>
        <time>2019-05-05T08:35:43Z</time>
      </trkpt>
      <trkpt lat="43.44413" lon="5.82273">
        <ele>497.14</ele>
        <time>2019-05-05T08:35:47Z</time>
      </trkpt>
      <trkpt lat="43.44412" lon="5.82278">
        <ele>497.14</ele>
        <time>2019-05-05T08:35:48Z</time>
      </trkpt>
      <trkpt lat="43.4441" lon="5.82284">
        <ele>497.14</ele>
        <time>2019-05-05T08:35:49Z</time>
      </trkpt>
      <trkpt lat="43.44407" lon="5.82289">
        <ele>496.66</ele>
        <time>2019-05-05T08:35:50Z</time>
      </trkpt>
      <trkpt lat="43.44405" lon="5.82294">
        <ele>496.66</ele>
        <time>2019-05-05T08:35:51Z</time>
      </trkpt>
      <trkpt lat="43.44399" lon="5.82307">
        <ele>495.22</ele>
        <time>2019-05-05T08:35:53Z</time>
      </trkpt>
      <trkpt lat="43.44397" lon="5.82314">
        <ele>495.22</ele>
        <time>2019-05-05T08:35:54Z</time>
      </trkpt>
      <trkpt lat="43.44395" lon="5.82321">
        <ele>494.26</ele>
        <time>2019-05-05T08:35:55Z</time>
      </trkpt>
      <trkpt lat="43.44392" lon="5.82327">
        <ele>494.26</ele>
        <time>2019-05-05T08:35:56Z</time>
      </trkpt>
      <trkpt lat="43.44389" lon="5.82332">
        <ele>493.77</ele>
        <time>2019-05-05T08:35:57Z</time>
      </trkpt>
      <trkpt lat="43.44368" lon="5.82371">
        <ele>491.85</ele>
        <time>2019-05-05T08:36:05Z</time>
      </trkpt>
      <trkpt lat="43.4436" lon="5.82391">
        <ele>491.85</ele>
        <time>2019-05-05T08:36:08Z</time>
      </trkpt>
      <trkpt lat="43.44336" lon="5.82442">
        <ele>489.45</ele>
        <time>2019-05-05T08:36:16Z</time>
      </trkpt>
      <trkpt lat="43.44335" lon="5.82448">
        <ele>488.97</ele>
        <time>2019-05-05T08:36:17Z</time>
      </trkpt>
      <trkpt lat="43.44335" lon="5.82452">
        <ele>488.01</ele>
        <time>2019-05-05T08:36:18Z</time>
      </trkpt>
      <trkpt lat="43.44335" lon="5.82455">
        <ele>487.53</ele>
        <time>2019-05-05T08:36:19Z</time>
      </trkpt>
      <trkpt lat="43.44335" lon="5.8246">
        <ele>487.05</ele>
        <time>2019-05-05T08:36:25Z</time>
      </trkpt>
      <trkpt lat="43.44341" lon="5.82477">
        <ele>487.05</ele>
        <time>2019-05-05T08:36:33Z</time>
      </trkpt>
      <trkpt lat="43.44338" lon="5.82491">
        <ele>488.01</ele>
        <time>2019-05-05T08:36:39Z</time>
      </trkpt>
      <trkpt lat="43.44334" lon="5.825">
        <ele>488.01</ele>
        <time>2019-05-05T08:36:44Z</time>
      </trkpt>
      <trkpt lat="43.44331" lon="5.82509">
        <ele>487.05</ele>
        <time>2019-05-05T08:36:48Z</time>
      </trkpt>
      <trkpt lat="43.44325" lon="5.82519">
        <ele>486.08</ele>
        <time>2019-05-05T08:36:54Z</time>
      </trkpt>
      <trkpt lat="43.44309" lon="5.82559">
        <ele>485.6</ele>
        <time>2019-05-05T08:37:08Z</time>
      </trkpt>
      <trkpt lat="43.44298" lon="5.82595">
        <ele>485.6</ele>
        <time>2019-05-05T08:37:19Z</time>
      </trkpt>
      <trkpt lat="43.44292" lon="5.8263">
        <ele>485.12</ele>
        <time>2019-05-05T08:37:28Z</time>
      </trkpt>
      <trkpt lat="43.4429" lon="5.82634">
        <ele>485.12</ele>
        <time>2019-05-05T08:37:29Z</time>
      </trkpt>
      <trkpt lat="43.44289" lon="5.82638">
        <ele>485.12</ele>
        <time>2019-05-05T08:37:30Z</time>
      </trkpt>
      <trkpt lat="43.44281" lon="5.82685">
        <ele>484.64</ele>
        <time>2019-05-05T08:37:40Z</time>
      </trkpt>
      <trkpt lat="43.44283" lon="5.82722">
        <ele>486.56</ele>
        <time>2019-05-05T08:37:47Z</time>
      </trkpt>
      <trkpt lat="43.44282" lon="5.82726">
        <ele>486.56</ele>
        <time>2019-05-05T08:37:48Z</time>
      </trkpt>
      <trkpt lat="43.4428" lon="5.82731">
        <ele>486.56</ele>
        <time>2019-05-05T08:37:49Z</time>
      </trkpt>
      <trkpt lat="43.44279" lon="5.82735">
        <ele>486.56</ele>
        <time>2019-05-05T08:37:50Z</time>
      </trkpt>
      <trkpt lat="43.44277" lon="5.82739">
        <ele>486.56</ele>
        <time>2019-05-05T08:37:51Z</time>
      </trkpt>
      <trkpt lat="43.44276" lon="5.82744">
        <ele>485.12</ele>
        <time>2019-05-05T08:37:52Z</time>
      </trkpt>
      <trkpt lat="43.44275" lon="5.82749">
        <ele>484.64</ele>
        <time>2019-05-05T08:37:53Z</time>
      </trkpt>
      <trkpt lat="43.44274" lon="5.82753">
        <ele>484.64</ele>
        <time>2019-05-05T08:37:54Z</time>
      </trkpt>
      <trkpt lat="43.44273" lon="5.82758">
        <ele>484.64</ele>
        <time>2019-05-05T08:37:55Z</time>
      </trkpt>
      <trkpt lat="43.44273" lon="5.82763">
        <ele>483.68</ele>
        <time>2019-05-05T08:37:56Z</time>
      </trkpt>
      <trkpt lat="43.44271" lon="5.82769">
        <ele>482.72</ele>
        <time>2019-05-05T08:37:57Z</time>
      </trkpt>
      <trkpt lat="43.4427" lon="5.82774">
        <ele>482.72</ele>
        <time>2019-05-05T08:37:58Z</time>
      </trkpt>
      <trkpt lat="43.44272" lon="5.82826">
        <ele>479.35</ele>
        <time>2019-05-05T08:38:08Z</time>
      </trkpt>
      <trkpt lat="43.44272" lon="5.82843">
        <ele>477.91</ele>
        <time>2019-05-05T08:38:19Z</time>
      </trkpt>
      <trkpt lat="43.44271" lon="5.82851">
        <ele>477.43</ele>
        <time>2019-05-05T08:38:39Z</time>
      </trkpt>
      <trkpt lat="43.44273" lon="5.82855">
        <ele>478.87</ele>
        <time>2019-05-05T08:39:08Z</time>
      </trkpt>
      <trkpt lat="43.44272" lon="5.82861">
        <ele>476.95</ele>
        <time>2019-05-05T08:39:28Z</time>
      </trkpt>
      <trkpt lat="43.44271" lon="5.82863">
        <ele>476.95</ele>
        <time>2019-05-05T08:39:44Z</time>
      </trkpt>
      <trkpt lat="43.44271" lon="5.82869">
        <ele>476.95</ele>
        <time>2019-05-05T08:39:47Z</time>
      </trkpt>
      <trkpt lat="43.4427" lon="5.82871">
        <ele>476.95</ele>
        <time>2019-05-05T08:39:48Z</time>
      </trkpt>
      <trkpt lat="43.4427" lon="5.82874">
        <ele>476.47</ele>
        <time>2019-05-05T08:39:49Z</time>
      </trkpt>
      <trkpt lat="43.44269" lon="5.82877">
        <ele>475.99</ele>
        <time>2019-05-05T08:39:50Z</time>
      </trkpt>
      <trkpt lat="43.44268" lon="5.8288">
        <ele>475.99</ele>
        <time>2019-05-05T08:39:51Z</time>
      </trkpt>
      <trkpt lat="43.44267" lon="5.82884">
        <ele>475.51</ele>
        <time>2019-05-05T08:39:52Z</time>
      </trkpt>
      <trkpt lat="43.44266" lon="5.82887">
        <ele>475.51</ele>
        <time>2019-05-05T08:39:53Z</time>
      </trkpt>
      <trkpt lat="43.44266" lon="5.82891">
        <ele>475.51</ele>
        <time>2019-05-05T08:39:54Z</time>
      </trkpt>
      <trkpt lat="43.44266" lon="5.82896">
        <ele>475.51</ele>
        <time>2019-05-05T08:39:55Z</time>
      </trkpt>
      <trkpt lat="43.44265" lon="5.8295">
        <ele>472.63</ele>
        <time>2019-05-05T08:40:08Z</time>
      </trkpt>
      <trkpt lat="43.44263" lon="5.83008">
        <ele>472.14</ele>
        <time>2019-05-05T08:40:21Z</time>
      </trkpt>
      <trkpt lat="43.44261" lon="5.83086">
        <ele>469.74</ele>
        <time>2019-05-05T08:40:34Z</time>
      </trkpt>
      <trkpt lat="43.44259" lon="5.83159">
        <ele>468.3</ele>
        <time>2019-05-05T08:40:46Z</time>
      </trkpt>
      <trkpt lat="43.44259" lon="5.83169">
        <ele>468.3</ele>
        <time>2019-05-05T08:40:48Z</time>
      </trkpt>
      <trkpt lat="43.44258" lon="5.83187">
        <ele>467.34</ele>
        <time>2019-05-05T08:40:51Z</time>
      </trkpt>
      <trkpt lat="43.44259" lon="5.83213">
        <ele>465.9</ele>
        <time>2019-05-05T08:40:55Z</time>
      </trkpt>
      <trkpt lat="43.44262" lon="5.83259">
        <ele>465.9</ele>
        <time>2019-05-05T08:41:03Z</time>
      </trkpt>
      <trkpt lat="43.44263" lon="5.83296">
        <ele>464.93</ele>
        <time>2019-05-05T08:41:09Z</time>
      </trkpt>
      <trkpt lat="43.44263" lon="5.83303">
        <ele>464.45</ele>
        <time>2019-05-05T08:41:10Z</time>
      </trkpt>
      <trkpt lat="43.44261" lon="5.83318">
        <ele>464.45</ele>
        <time>2019-05-05T08:41:12Z</time>
      </trkpt>
      <trkpt lat="43.44259" lon="5.83324">
        <ele>463.97</ele>
        <time>2019-05-05T08:41:13Z</time>
      </trkpt>
      <trkpt lat="43.44253" lon="5.83351">
        <ele>463.01</ele>
        <time>2019-05-05T08:41:17Z</time>
      </trkpt>
      <trkpt lat="43.44252" lon="5.83357">
        <ele>462.05</ele>
        <time>2019-05-05T08:41:18Z</time>
      </trkpt>
      <trkpt lat="43.44252" lon="5.83364">
        <ele>462.05</ele>
        <time>2019-05-05T08:41:19Z</time>
      </trkpt>
      <trkpt lat="43.44253" lon="5.8337">
        <ele>461.09</ele>
        <time>2019-05-05T08:41:20Z</time>
      </trkpt>
      <trkpt lat="43.44253" lon="5.83377">
        <ele>460.13</ele>
        <time>2019-05-05T08:41:21Z</time>
      </trkpt>
      <trkpt lat="43.44254" lon="5.83383">
        <ele>460.13</ele>
        <time>2019-05-05T08:41:22Z</time>
      </trkpt>
      <trkpt lat="43.44253" lon="5.83391">
        <ele>458.69</ele>
        <time>2019-05-05T08:41:23Z</time>
      </trkpt>
      <trkpt lat="43.44252" lon="5.83397">
        <ele>458.69</ele>
        <time>2019-05-05T08:41:24Z</time>
      </trkpt>
      <trkpt lat="43.44249" lon="5.83411">
        <ele>458.21</ele>
        <time>2019-05-05T08:41:26Z</time>
      </trkpt>
      <trkpt lat="43.44248" lon="5.83418">
        <ele>458.21</ele>
        <time>2019-05-05T08:41:27Z</time>
      </trkpt>
      <trkpt lat="43.44247" lon="5.83425">
        <ele>458.21</ele>
        <time>2019-05-05T08:41:28Z</time>
      </trkpt>
      <trkpt lat="43.44248" lon="5.83433">
        <ele>458.21</ele>
        <time>2019-05-05T08:41:29Z</time>
      </trkpt>
      <trkpt lat="43.44248" lon="5.83439">
        <ele>457.72</ele>
        <time>2019-05-05T08:41:30Z</time>
      </trkpt>
      <trkpt lat="43.44249" lon="5.83445">
        <ele>456.76</ele>
        <time>2019-05-05T08:41:31Z</time>
      </trkpt>
      <trkpt lat="43.44249" lon="5.83452">
        <ele>456.76</ele>
        <time>2019-05-05T08:41:32Z</time>
      </trkpt>
      <trkpt lat="43.44248" lon="5.83476">
        <ele>455.32</ele>
        <time>2019-05-05T08:41:35Z</time>
      </trkpt>
      <trkpt lat="43.44249" lon="5.83484">
        <ele>454.36</ele>
        <time>2019-05-05T08:41:36Z</time>
      </trkpt>
      <trkpt lat="43.44252" lon="5.83506">
        <ele>450.52</ele>
        <time>2019-05-05T08:41:39Z</time>
      </trkpt>
      <trkpt lat="43.44251" lon="5.83513">
        <ele>450.52</ele>
        <time>2019-05-05T08:41:40Z</time>
      </trkpt>
      <trkpt lat="43.44249" lon="5.83519">
        <ele>450.52</ele>
        <time>2019-05-05T08:41:41Z</time>
      </trkpt>
      <trkpt lat="43.44247" lon="5.83524">
        <ele>450.52</ele>
        <time>2019-05-05T08:41:42Z</time>
      </trkpt>
      <trkpt lat="43.44244" lon="5.83528">
        <ele>450.52</ele>
        <time>2019-05-05T08:41:43Z</time>
      </trkpt>
      <trkpt lat="43.44241" lon="5.83532">
        <ele>450.52</ele>
        <time>2019-05-05T08:41:44Z</time>
      </trkpt>
      <trkpt lat="43.44239" lon="5.83536">
        <ele>450.03</ele>
        <time>2019-05-05T08:41:45Z</time>
      </trkpt>
      <trkpt lat="43.44237" lon="5.83539">
        <ele>450.03</ele>
        <time>2019-05-05T08:41:46Z</time>
      </trkpt>
      <trkpt lat="43.44236" lon="5.83543">
        <ele>450.03</ele>
        <time>2019-05-05T08:41:47Z</time>
      </trkpt>
      <trkpt lat="43.44235" lon="5.83546">
        <ele>449.07</ele>
        <time>2019-05-05T08:41:48Z</time>
      </trkpt>
      <trkpt lat="43.44234" lon="5.8355">
        <ele>448.59</ele>
        <time>2019-05-05T08:41:49Z</time>
      </trkpt>
      <trkpt lat="43.44233" lon="5.83553">
        <ele>448.11</ele>
        <time>2019-05-05T08:41:50Z</time>
      </trkpt>
      <trkpt lat="43.44232" lon="5.83562">
        <ele>446.67</ele>
        <time>2019-05-05T08:41:53Z</time>
      </trkpt>
      <trkpt lat="43.4423" lon="5.83608">
        <ele>445.71</ele>
        <time>2019-05-05T08:42:06Z</time>
      </trkpt>
      <trkpt lat="43.44222" lon="5.83624">
        <ele>445.23</ele>
        <time>2019-05-05T08:42:10Z</time>
      </trkpt>
      <trkpt lat="43.4422" lon="5.8363">
        <ele>445.23</ele>
        <time>2019-05-05T08:42:11Z</time>
      </trkpt>
      <trkpt lat="43.44219" lon="5.83637">
        <ele>444.75</ele>
        <time>2019-05-05T08:42:12Z</time>
      </trkpt>
      <trkpt lat="43.44219" lon="5.83643">
        <ele>444.75</ele>
        <time>2019-05-05T08:42:13Z</time>
      </trkpt>
      <trkpt lat="43.44219" lon="5.8365">
        <ele>444.27</ele>
        <time>2019-05-05T08:42:14Z</time>
      </trkpt>
      <trkpt lat="43.44218" lon="5.83684">
        <ele>444.27</ele>
        <time>2019-05-05T08:42:20Z</time>
      </trkpt>
      <trkpt lat="43.44217" lon="5.8369">
        <ele>443.79</ele>
        <time>2019-05-05T08:42:21Z</time>
      </trkpt>
      <trkpt lat="43.44215" lon="5.8371">
        <ele>441.86</ele>
        <time>2019-05-05T08:42:24Z</time>
      </trkpt>
      <trkpt lat="43.44214" lon="5.83717">
        <ele>441.38</ele>
        <time>2019-05-05T08:42:25Z</time>
      </trkpt>
      <trkpt lat="43.44214" lon="5.83724">
        <ele>440.9</ele>
        <time>2019-05-05T08:42:26Z</time>
      </trkpt>
      <trkpt lat="43.44214" lon="5.8373">
        <ele>440.9</ele>
        <time>2019-05-05T08:42:27Z</time>
      </trkpt>
      <trkpt lat="43.44213" lon="5.83736">
        <ele>439.94</ele>
        <time>2019-05-05T08:42:28Z</time>
      </trkpt>
      <trkpt lat="43.44213" lon="5.83741">
        <ele>439.94</ele>
        <time>2019-05-05T08:42:29Z</time>
      </trkpt>
      <trkpt lat="43.44213" lon="5.83747">
        <ele>439.94</ele>
        <time>2019-05-05T08:42:30Z</time>
      </trkpt>
      <trkpt lat="43.44213" lon="5.83753">
        <ele>439.46</ele>
        <time>2019-05-05T08:42:31Z</time>
      </trkpt>
      <trkpt lat="43.44208" lon="5.83793">
        <ele>438.02</ele>
        <time>2019-05-05T08:42:37Z</time>
      </trkpt>
      <trkpt lat="43.44195" lon="5.83877">
        <ele>434.17</ele>
        <time>2019-05-05T08:42:48Z</time>
      </trkpt>
      <trkpt lat="43.44184" lon="5.83947">
        <ele>432.73</ele>
        <time>2019-05-05T08:42:58Z</time>
      </trkpt>
      <trkpt lat="43.44181" lon="5.83958">
        <ele>434.17</ele>
        <time>2019-05-05T08:43:00Z</time>
      </trkpt>
      <trkpt lat="43.44174" lon="5.83983">
        <ele>432.25</ele>
        <time>2019-05-05T08:43:05Z</time>
      </trkpt>
      <trkpt lat="43.44169" lon="5.84011">
        <ele>430.81</ele>
        <time>2019-05-05T08:43:10Z</time>
      </trkpt>
      <trkpt lat="43.44166" lon="5.84016">
        <ele>430.81</ele>
        <time>2019-05-05T08:43:11Z</time>
      </trkpt>
      <trkpt lat="43.44154" lon="5.84038">
        <ele>427.44</ele>
        <time>2019-05-05T08:43:16Z</time>
      </trkpt>
      <trkpt lat="43.44149" lon="5.84049">
        <ele>425.52</ele>
        <time>2019-05-05T08:43:18Z</time>
      </trkpt>
      <trkpt lat="43.44146" lon="5.84056">
        <ele>425.04</ele>
        <time>2019-05-05T08:43:19Z</time>
      </trkpt>
      <trkpt lat="43.44135" lon="5.84083">
        <ele>421.68</ele>
        <time>2019-05-05T08:43:23Z</time>
      </trkpt>
      <trkpt lat="43.44132" lon="5.8409">
        <ele>421.68</ele>
        <time>2019-05-05T08:43:24Z</time>
      </trkpt>
      <trkpt lat="43.44126" lon="5.84102">
        <ele>420.23</ele>
        <time>2019-05-05T08:43:26Z</time>
      </trkpt>
      <trkpt lat="43.44117" lon="5.84122">
        <ele>418.31</ele>
        <time>2019-05-05T08:43:29Z</time>
      </trkpt>
      <trkpt lat="43.4411" lon="5.84135">
        <ele>417.35</ele>
        <time>2019-05-05T08:43:31Z</time>
      </trkpt>
      <trkpt lat="43.44104" lon="5.84151">
        <ele>416.39</ele>
        <time>2019-05-05T08:43:33Z</time>
      </trkpt>
      <trkpt lat="43.44102" lon="5.84161">
        <ele>414.95</ele>
        <time>2019-05-05T08:43:34Z</time>
      </trkpt>
      <trkpt lat="43.44099" lon="5.8417">
        <ele>413.98</ele>
        <time>2019-05-05T08:43:35Z</time>
      </trkpt>
      <trkpt lat="43.44097" lon="5.84179">
        <ele>413.98</ele>
        <time>2019-05-05T08:43:36Z</time>
      </trkpt>
      <trkpt lat="43.44089" lon="5.84203">
        <ele>411.58</ele>
        <time>2019-05-05T08:43:39Z</time>
      </trkpt>
      <trkpt lat="43.4408" lon="5.84238">
        <ele>408.22</ele>
        <time>2019-05-05T08:43:47Z</time>
      </trkpt>
      <trkpt lat="43.44073" lon="5.8427">
        <ele>405.33</ele>
        <time>2019-05-05T08:43:55Z</time>
      </trkpt>
      <trkpt lat="43.44064" lon="5.84331">
        <ele>402.45</ele>
        <time>2019-05-05T08:44:06Z</time>
      </trkpt>
      <trkpt lat="43.44064" lon="5.84338">
        <ele>402.45</ele>
        <time>2019-05-05T08:44:07Z</time>
      </trkpt>
      <trkpt lat="43.44064" lon="5.84347">
        <ele>402.45</ele>
        <time>2019-05-05T08:44:08Z</time>
      </trkpt>
      <trkpt lat="43.44069" lon="5.84446">
        <ele>400.05</ele>
        <time>2019-05-05T08:44:22Z</time>
      </trkpt>
      <trkpt lat="43.4407" lon="5.84502">
        <ele>396.68</ele>
        <time>2019-05-05T08:44:32Z</time>
      </trkpt>
      <trkpt lat="43.44072" lon="5.84536">
        <ele>393.32</ele>
        <time>2019-05-05T08:44:38Z</time>
      </trkpt>
      <trkpt lat="43.44079" lon="5.84574">
        <ele>389.95</ele>
        <time>2019-05-05T08:44:43Z</time>
      </trkpt>
      <trkpt lat="43.44079" lon="5.84599">
        <ele>388.51</ele>
        <time>2019-05-05T08:44:46Z</time>
      </trkpt>
      <trkpt lat="43.44079" lon="5.84607">
        <ele>387.55</ele>
        <time>2019-05-05T08:44:47Z</time>
      </trkpt>
      <trkpt lat="43.44076" lon="5.84631">
        <ele>386.11</ele>
        <time>2019-05-05T08:44:50Z</time>
      </trkpt>
      <trkpt lat="43.44069" lon="5.84721">
        <ele>383.22</ele>
        <time>2019-05-05T08:44:59Z</time>
      </trkpt>
      <trkpt lat="43.44067" lon="5.84743">
        <ele>381.78</ele>
        <time>2019-05-05T08:45:01Z</time>
      </trkpt>
      <trkpt lat="43.44066" lon="5.84768">
        <ele>377.45</ele>
        <time>2019-05-05T08:45:03Z</time>
      </trkpt>
      <trkpt lat="43.44066" lon="5.84809">
        <ele>374.09</ele>
        <time>2019-05-05T08:45:06Z</time>
      </trkpt>
      <trkpt lat="43.44067" lon="5.84826">
        <ele>374.09</ele>
        <time>2019-05-05T08:45:07Z</time>
      </trkpt>
      <trkpt lat="43.44069" lon="5.8496">
        <ele>370.24</ele>
        <time>2019-05-05T08:45:17Z</time>
      </trkpt>
      <trkpt lat="43.4407" lon="5.8502">
        <ele>367.36</ele>
        <time>2019-05-05T08:45:22Z</time>
      </trkpt>
      <trkpt lat="43.44066" lon="5.85058">
        <ele>367.36</ele>
        <time>2019-05-05T08:45:25Z</time>
      </trkpt>
      <trkpt lat="43.44034" lon="5.85181">
        <ele>364</ele>
        <time>2019-05-05T08:45:35Z</time>
      </trkpt>
      <trkpt lat="43.44031" lon="5.85208">
        <ele>362.55</ele>
        <time>2019-05-05T08:45:37Z</time>
      </trkpt>
      <trkpt lat="43.44023" lon="5.85258">
        <ele>360.63</ele>
        <time>2019-05-05T08:45:42Z</time>
      </trkpt>
      <trkpt lat="43.4402" lon="5.85267">
        <ele>360.63</ele>
        <time>2019-05-05T08:45:43Z</time>
      </trkpt>
      <trkpt lat="43.44016" lon="5.85275">
        <ele>360.63</ele>
        <time>2019-05-05T08:45:44Z</time>
      </trkpt>
      <trkpt lat="43.44013" lon="5.85284">
        <ele>359.67</ele>
        <time>2019-05-05T08:45:45Z</time>
      </trkpt>
      <trkpt lat="43.44011" lon="5.85293">
        <ele>359.19</ele>
        <time>2019-05-05T08:45:46Z</time>
      </trkpt>
      <trkpt lat="43.4401" lon="5.85302">
        <ele>359.19</ele>
        <time>2019-05-05T08:45:47Z</time>
      </trkpt>
      <trkpt lat="43.44009" lon="5.85312">
        <ele>358.23</ele>
        <time>2019-05-05T08:45:48Z</time>
      </trkpt>
      <trkpt lat="43.44008" lon="5.85323">
        <ele>356.79</ele>
        <time>2019-05-05T08:45:49Z</time>
      </trkpt>
      <trkpt lat="43.44008" lon="5.85332">
        <ele>357.27</ele>
        <time>2019-05-05T08:45:50Z</time>
      </trkpt>
      <trkpt lat="43.44005" lon="5.85373">
        <ele>354.38</ele>
        <time>2019-05-05T08:45:54Z</time>
      </trkpt>
      <trkpt lat="43.44002" lon="5.85395">
        <ele>352.94</ele>
        <time>2019-05-05T08:45:56Z</time>
      </trkpt>
      <trkpt lat="43.44" lon="5.85403">
        <ele>352.94</ele>
        <time>2019-05-05T08:45:57Z</time>
      </trkpt>
      <trkpt lat="43.43995" lon="5.8543">
        <ele>351.5</ele>
        <time>2019-05-05T08:46:00Z</time>
      </trkpt>
      <trkpt lat="43.43994" lon="5.85438">
        <ele>351.02</ele>
        <time>2019-05-05T08:46:01Z</time>
      </trkpt>
      <trkpt lat="43.43991" lon="5.85493">
        <ele>349.1</ele>
        <time>2019-05-05T08:46:08Z</time>
      </trkpt>
      <trkpt lat="43.4399" lon="5.85502">
        <ele>349.1</ele>
        <time>2019-05-05T08:46:09Z</time>
      </trkpt>
      <trkpt lat="43.4398" lon="5.85541">
        <ele>347.17</ele>
        <time>2019-05-05T08:46:13Z</time>
      </trkpt>
      <trkpt lat="43.43967" lon="5.85632">
        <ele>346.69</ele>
        <time>2019-05-05T08:46:24Z</time>
      </trkpt>
      <trkpt lat="43.4396" lon="5.857">
        <ele>348.13</ele>
        <time>2019-05-05T08:46:37Z</time>
      </trkpt>
      <trkpt lat="43.43949" lon="5.85734">
        <ele>349.58</ele>
        <time>2019-05-05T08:46:49Z</time>
      </trkpt>
      <trkpt lat="43.43947" lon="5.85737">
        <ele>350.06</ele>
        <time>2019-05-05T08:46:50Z</time>
      </trkpt>
      <trkpt lat="43.43947" lon="5.85739">
        <ele>350.54</ele>
        <time>2019-05-05T08:46:51Z</time>
      </trkpt>
      <trkpt lat="43.43945" lon="5.85749">
        <ele>351.02</ele>
        <time>2019-05-05T08:46:56Z</time>
      </trkpt>
      <trkpt lat="43.43943" lon="5.85751">
        <ele>351.02</ele>
        <time>2019-05-05T08:46:57Z</time>
      </trkpt>
      <trkpt lat="43.43941" lon="5.85754">
        <ele>351.98</ele>
        <time>2019-05-05T08:46:58Z</time>
      </trkpt>
      <trkpt lat="43.43921" lon="5.85805">
        <ele>353.9</ele>
        <time>2019-05-05T08:47:10Z</time>
      </trkpt>
      <trkpt lat="43.43904" lon="5.85849">
        <ele>353.9</ele>
        <time>2019-05-05T08:47:25Z</time>
      </trkpt>
      <trkpt lat="43.43887" lon="5.85882">
        <ele>353.42</ele>
        <time>2019-05-05T08:47:35Z</time>
      </trkpt>
      <trkpt lat="43.43886" lon="5.85884">
        <ele>353.42</ele>
        <time>2019-05-05T08:47:36Z</time>
      </trkpt>
      <trkpt lat="43.43862" lon="5.85915">
        <ele>353.42</ele>
        <time>2019-05-05T08:47:48Z</time>
      </trkpt>
      <trkpt lat="43.43859" lon="5.85918">
        <ele>353.42</ele>
        <time>2019-05-05T08:47:49Z</time>
      </trkpt>
      <trkpt lat="43.43857" lon="5.85923">
        <ele>353.42</ele>
        <time>2019-05-05T08:47:50Z</time>
      </trkpt>
      <trkpt lat="43.43857" lon="5.85928">
        <ele>353.42</ele>
        <time>2019-05-05T08:47:51Z</time>
      </trkpt>
      <trkpt lat="43.43856" lon="5.8594">
        <ele>353.42</ele>
        <time>2019-05-05T08:47:53Z</time>
      </trkpt>
      <trkpt lat="43.43858" lon="5.85947">
        <ele>353.42</ele>
        <time>2019-05-05T08:47:54Z</time>
      </trkpt>
      <trkpt lat="43.43859" lon="5.85952">
        <ele>353.42</ele>
        <time>2019-05-05T08:47:55Z</time>
      </trkpt>
      <trkpt lat="43.4387" lon="5.85978">
        <ele>353.42</ele>
        <time>2019-05-05T08:47:59Z</time>
      </trkpt>
      <trkpt lat="43.43874" lon="5.85984">
        <ele>353.42</ele>
        <time>2019-05-05T08:48:00Z</time>
      </trkpt>
      <trkpt lat="43.43879" lon="5.85989">
        <ele>352.94</ele>
        <time>2019-05-05T08:48:01Z</time>
      </trkpt>
      <trkpt lat="43.43883" lon="5.85995">
        <ele>352.94</ele>
        <time>2019-05-05T08:48:02Z</time>
      </trkpt>
      <trkpt lat="43.43887" lon="5.86002">
        <ele>352.94</ele>
        <time>2019-05-05T08:48:03Z</time>
      </trkpt>
      <trkpt lat="43.43891" lon="5.86008">
        <ele>352.94</ele>
        <time>2019-05-05T08:48:04Z</time>
      </trkpt>
      <trkpt lat="43.43895" lon="5.86016">
        <ele>351.98</ele>
        <time>2019-05-05T08:48:05Z</time>
      </trkpt>
      <trkpt lat="43.43943" lon="5.86127">
        <ele>349.1</ele>
        <time>2019-05-05T08:48:19Z</time>
      </trkpt>
      <trkpt lat="43.43964" lon="5.8619">
        <ele>345.25</ele>
        <time>2019-05-05T08:48:26Z</time>
      </trkpt>
      <trkpt lat="43.43994" lon="5.86285">
        <ele>343.33</ele>
        <time>2019-05-05T08:48:39Z</time>
      </trkpt>
      <trkpt lat="43.43998" lon="5.86289">
        <ele>343.33</ele>
        <time>2019-05-05T08:48:40Z</time>
      </trkpt>
      <trkpt lat="43.44003" lon="5.86292">
        <ele>343.33</ele>
        <time>2019-05-05T08:48:41Z</time>
      </trkpt>
      <trkpt lat="43.44006" lon="5.86293">
        <ele>343.33</ele>
        <time>2019-05-05T08:48:42Z</time>
      </trkpt>
      <trkpt lat="43.44011" lon="5.86295">
        <ele>345.25</ele>
        <time>2019-05-05T08:48:43Z</time>
      </trkpt>
      <trkpt lat="43.44015" lon="5.86296">
        <ele>345.73</ele>
        <time>2019-05-05T08:48:44Z</time>
      </trkpt>
      <trkpt lat="43.44019" lon="5.86296">
        <ele>345.73</ele>
        <time>2019-05-05T08:48:45Z</time>
      </trkpt>
      <trkpt lat="43.44027" lon="5.86296">
        <ele>343.81</ele>
        <time>2019-05-05T08:48:47Z</time>
      </trkpt>
      <trkpt lat="43.44037" lon="5.86292">
        <ele>341.41</ele>
        <time>2019-05-05T08:48:50Z</time>
      </trkpt>
      <trkpt lat="43.44039" lon="5.86287">
        <ele>340.44</ele>
        <time>2019-05-05T08:48:51Z</time>
      </trkpt>
      <trkpt lat="43.44039" lon="5.86281">
        <ele>340.44</ele>
        <time>2019-05-05T08:48:52Z</time>
      </trkpt>
      <trkpt lat="43.44039" lon="5.86277">
        <ele>340.44</ele>
        <time>2019-05-05T08:48:53Z</time>
      </trkpt>
      <trkpt lat="43.44037" lon="5.86273">
        <ele>341.89</ele>
        <time>2019-05-05T08:48:54Z</time>
      </trkpt>
      <trkpt lat="43.44036" lon="5.86268">
        <ele>341.89</ele>
        <time>2019-05-05T08:48:55Z</time>
      </trkpt>
      <trkpt lat="43.44034" lon="5.86247">
        <ele>344.29</ele>
        <time>2019-05-05T08:48:59Z</time>
      </trkpt>
      <trkpt lat="43.44033" lon="5.86213">
        <ele>346.21</ele>
        <time>2019-05-05T08:49:06Z</time>
      </trkpt>
      <trkpt lat="43.44028" lon="5.86164">
        <ele>348.13</ele>
        <time>2019-05-05T08:49:19Z</time>
      </trkpt>
      <trkpt lat="43.44026" lon="5.8616">
        <ele>348.13</ele>
        <time>2019-05-05T08:49:20Z</time>
      </trkpt>
      <trkpt lat="43.44025" lon="5.86159">
        <ele>348.13</ele>
        <time>2019-05-05T08:49:21Z</time>
      </trkpt>
      <trkpt lat="43.44022" lon="5.86159">
        <ele>349.1</ele>
        <time>2019-05-05T08:49:22Z</time>
      </trkpt>
      <trkpt lat="43.43997" lon="5.86154">
        <ele>350.06</ele>
        <time>2019-05-05T08:49:33Z</time>
      </trkpt>
      <trkpt lat="43.43996" lon="5.86151">
        <ele>350.06</ele>
        <time>2019-05-05T08:49:34Z</time>
      </trkpt>
      <trkpt lat="43.43995" lon="5.86148">
        <ele>350.06</ele>
        <time>2019-05-05T08:49:35Z</time>
      </trkpt>
      <trkpt lat="43.43994" lon="5.86145">
        <ele>350.06</ele>
        <time>2019-05-05T08:49:36Z</time>
      </trkpt>
      <trkpt lat="43.43993" lon="5.86141">
        <ele>350.06</ele>
        <time>2019-05-05T08:49:37Z</time>
      </trkpt>
      <trkpt lat="43.43992" lon="5.86138">
        <ele>350.06</ele>
        <time>2019-05-05T08:49:38Z</time>
      </trkpt>
      <trkpt lat="43.43978" lon="5.86099">
        <ele>351.98</ele>
        <time>2019-05-05T08:49:50Z</time>
      </trkpt>
      <trkpt lat="43.43965" lon="5.86076">
        <ele>351.98</ele>
        <time>2019-05-05T08:49:58Z</time>
      </trkpt>
      <trkpt lat="43.43969" lon="5.86066">
        <ele>351.98</ele>
        <time>2019-05-05T08:50:02Z</time>
      </trkpt>
      <trkpt lat="43.43969" lon="5.86063">
        <ele>351.98</ele>
        <time>2019-05-05T08:50:03Z</time>
      </trkpt>
      <trkpt lat="43.4397" lon="5.8606">
        <ele>351.98</ele>
        <time>2019-05-05T08:50:04Z</time>
      </trkpt>
      <trkpt lat="43.43971" lon="5.86048">
        <ele>352.46</ele>
        <time>2019-05-05T08:50:08Z</time>
      </trkpt>
      <trkpt lat="43.43972" lon="5.86043">
        <ele>351.02</ele>
        <time>2019-05-05T08:50:11Z</time>
      </trkpt>
      <trkpt lat="43.43972" lon="5.86041">
        <ele>352.46</ele>
        <time>2019-05-05T08:50:14Z</time>
      </trkpt>
      <trkpt lat="43.43971" lon="5.86025">
        <ele>352.46</ele>
        <time>2019-05-05T08:50:37Z</time>
      </trkpt>
      <trkpt lat="43.43972" lon="5.86025">
        <ele>352.46</ele>
        <time>2019-05-05T08:50:57Z</time>
      </trkpt>
      <trkpt lat="43.43974" lon="5.86024">
        <ele>351.5</ele>
        <time>2019-05-05T08:51:10Z</time>
      </trkpt>
      <trkpt lat="43.43974" lon="5.86024">
        <ele>353.42</ele>
        <time>2019-05-05T08:51:14Z</time>
      </trkpt>
      <trkpt lat="43.43973" lon="5.86024">
        <ele>352.94</ele>
        <time>2019-05-05T08:51:41Z</time>
      </trkpt>
      <trkpt lat="43.43973" lon="5.86025">
        <ele>351.02</ele>
        <time>2019-05-05T08:51:54Z</time>
      </trkpt>
      <trkpt lat="43.43973" lon="5.86025">
        <ele>353.42</ele>
        <time>2019-05-05T08:51:57Z</time>
      </trkpt>
      <trkpt lat="43.43974" lon="5.86026">
        <ele>352.46</ele>
        <time>2019-05-05T08:52:10Z</time>
      </trkpt>
      <trkpt lat="43.43974" lon="5.86025">
        <ele>353.42</ele>
        <time>2019-05-05T08:52:14Z</time>
      </trkpt>
    </trkseg>
  </trk>
</gpx>